<?xml version="1.0" encoding="UTF-8" standalone="no" ?>
<gpx xmlns="http://www.topografix.com/GPX/1/1" xmlns:xsi="http://www.w3.org/2001/XMLSchema-instance" xsi:schemaLocation="http://www.topografix.com/GPX/1/1 http://www.topografix.com/GPX/1/1/gpx.xsd" version="1.1" creator="VisuGPX - https://www.visugpx.com">
  <metadata>
    <name>Le Bayard - Cacade de Luizet</name>
    <desc><![CDATA[Circuit au départ du Bayard vers la cascade de Luizet]]></desc>
  </metadata>
  <trk>
    <name><![CDATA[ACTIVE LOG073252]]></name>
    <trkseg>
      <trkpt lat="45.78719" lon="5.44342">
        <ele>222.597</ele>
        <time>2015-06-21T07:32:50Z</time>
      </trkpt>
      <trkpt lat="45.78716" lon="5.44346">
        <ele>223.646</ele>
        <time>2015-06-21T07:33:53Z</time>
      </trkpt>
      <trkpt lat="45.7871" lon="5.44352">
        <ele>222.401</ele>
        <time>2015-06-21T07:33:55Z</time>
      </trkpt>
      <trkpt lat="45.78689" lon="5.44364">
        <ele>222.248</ele>
        <time>2015-06-21T07:34:02Z</time>
      </trkpt>
      <trkpt lat="45.78686" lon="5.44399">
        <ele>220.578</ele>
        <time>2015-06-21T07:34:08Z</time>
      </trkpt>
      <trkpt lat="45.78688" lon="5.44419">
        <ele>216.971</ele>
        <time>2015-06-21T07:34:10Z</time>
      </trkpt>
      <trkpt lat="45.78685" lon="5.44453">
        <ele>214.691</ele>
        <time>2015-06-21T07:34:13Z</time>
      </trkpt>
      <trkpt lat="45.78676" lon="5.44475">
        <ele>212.696</ele>
        <time>2015-06-21T07:34:15Z</time>
      </trkpt>
      <trkpt lat="45.78659" lon="5.44508">
        <ele>209.684</ele>
        <time>2015-06-21T07:34:18Z</time>
      </trkpt>
      <trkpt lat="45.78624" lon="5.44558">
        <ele>207.66</ele>
        <time>2015-06-21T07:34:23Z</time>
      </trkpt>
      <trkpt lat="45.78587" lon="5.44578">
        <ele>210.503</ele>
        <time>2015-06-21T07:34:29Z</time>
      </trkpt>
      <trkpt lat="45.78564" lon="5.44615">
        <ele>215.18</ele>
        <time>2015-06-21T07:34:40Z</time>
      </trkpt>
      <trkpt lat="45.78534" lon="5.44655">
        <ele>218.187</ele>
        <time>2015-06-21T07:34:54Z</time>
      </trkpt>
      <trkpt lat="45.78507" lon="5.44694">
        <ele>221.281</ele>
        <time>2015-06-21T07:35:07Z</time>
      </trkpt>
      <trkpt lat="45.78467" lon="5.44726">
        <ele>223.453</ele>
        <time>2015-06-21T07:35:23Z</time>
      </trkpt>
      <trkpt lat="45.78425" lon="5.44756">
        <ele>223.638</ele>
        <time>2015-06-21T07:35:40Z</time>
      </trkpt>
      <trkpt lat="45.78413" lon="5.44764">
        <ele>223.939</ele>
        <time>2015-06-21T07:35:47Z</time>
      </trkpt>
      <trkpt lat="45.7841" lon="5.44784">
        <ele>220.887</ele>
        <time>2015-06-21T07:35:52Z</time>
      </trkpt>
      <trkpt lat="45.78386" lon="5.44824">
        <ele>216.612</ele>
        <time>2015-06-21T07:35:59Z</time>
      </trkpt>
      <trkpt lat="45.78382" lon="5.44831">
        <ele>216.612</ele>
        <time>2015-06-21T07:36:00Z</time>
      </trkpt>
      <trkpt lat="45.78369" lon="5.44852">
        <ele>215.864</ele>
        <time>2015-06-21T07:36:03Z</time>
      </trkpt>
      <trkpt lat="45.78355" lon="5.44883">
        <ele>214.67</ele>
        <time>2015-06-21T07:36:07Z</time>
      </trkpt>
      <trkpt lat="45.78345" lon="5.44917">
        <ele>213.513</ele>
        <time>2015-06-21T07:36:11Z</time>
      </trkpt>
      <trkpt lat="45.78321" lon="5.44975">
        <ele>212.73</ele>
        <time>2015-06-21T07:36:21Z</time>
      </trkpt>
      <trkpt lat="45.78305" lon="5.4501">
        <ele>213.476</ele>
        <time>2015-06-21T07:36:29Z</time>
      </trkpt>
      <trkpt lat="45.78307" lon="5.45022">
        <ele>213.37</ele>
        <time>2015-06-21T07:36:33Z</time>
      </trkpt>
      <trkpt lat="45.78305" lon="5.45038">
        <ele>212.802</ele>
        <time>2015-06-21T07:36:37Z</time>
      </trkpt>
      <trkpt lat="45.78299" lon="5.45051">
        <ele>211.951</ele>
        <time>2015-06-21T07:36:39Z</time>
      </trkpt>
      <trkpt lat="45.78281" lon="5.45071">
        <ele>213.927</ele>
        <time>2015-06-21T07:36:44Z</time>
      </trkpt>
      <trkpt lat="45.78278" lon="5.45076">
        <ele>214.337</ele>
        <time>2015-06-21T07:36:45Z</time>
      </trkpt>
      <trkpt lat="45.78274" lon="5.45081">
        <ele>216.327</ele>
        <time>2015-06-21T07:36:47Z</time>
      </trkpt>
      <trkpt lat="45.78268" lon="5.45086">
        <ele>216.953</ele>
        <time>2015-06-21T07:37:00Z</time>
      </trkpt>
      <trkpt lat="45.78267" lon="5.45094">
        <ele>216.993</ele>
        <time>2015-06-21T07:37:08Z</time>
      </trkpt>
      <trkpt lat="45.78268" lon="5.45097">
        <ele>216.924</ele>
        <time>2015-06-21T07:37:10Z</time>
      </trkpt>
      <trkpt lat="45.7827" lon="5.45101">
        <ele>216.977</ele>
        <time>2015-06-21T07:37:27Z</time>
      </trkpt>
      <trkpt lat="45.78303" lon="5.45122">
        <ele>217.17</ele>
        <time>2015-06-21T07:39:18Z</time>
      </trkpt>
      <trkpt lat="45.7841" lon="5.45195">
        <ele>217.854</ele>
        <time>2015-06-21T07:39:42Z</time>
      </trkpt>
      <trkpt lat="45.78475" lon="5.4524">
        <ele>214.374</ele>
        <time>2015-06-21T07:39:54Z</time>
      </trkpt>
      <trkpt lat="45.78508" lon="5.45266">
        <ele>213.188</ele>
        <time>2015-06-21T07:40:04Z</time>
      </trkpt>
      <trkpt lat="45.78505" lon="5.45275">
        <ele>212.897</ele>
        <time>2015-06-21T07:40:08Z</time>
      </trkpt>
      <trkpt lat="45.78502" lon="5.45271">
        <ele>212.413</ele>
        <time>2015-06-21T07:40:11Z</time>
      </trkpt>
      <trkpt lat="45.78485" lon="5.45256">
        <ele>211.338</ele>
        <time>2015-06-21T07:40:17Z</time>
      </trkpt>
      <trkpt lat="45.78436" lon="5.45229">
        <ele>211.19</ele>
        <time>2015-06-21T07:40:32Z</time>
      </trkpt>
      <trkpt lat="45.78418" lon="5.45213">
        <ele>210.585</ele>
        <time>2015-06-21T07:40:38Z</time>
      </trkpt>
      <trkpt lat="45.78424" lon="5.45184">
        <ele>210.749</ele>
        <time>2015-06-21T07:40:46Z</time>
      </trkpt>
      <trkpt lat="45.78443" lon="5.45173">
        <ele>210.167</ele>
        <time>2015-06-21T07:40:51Z</time>
      </trkpt>
      <trkpt lat="45.78462" lon="5.45143">
        <ele>209.523</ele>
        <time>2015-06-21T07:40:57Z</time>
      </trkpt>
      <trkpt lat="45.78482" lon="5.45092">
        <ele>209.158</ele>
        <time>2015-06-21T07:41:05Z</time>
      </trkpt>
      <trkpt lat="45.78533" lon="5.44985">
        <ele>209.665</ele>
        <time>2015-06-21T07:41:22Z</time>
      </trkpt>
      <trkpt lat="45.78562" lon="5.4494">
        <ele>209.422</ele>
        <time>2015-06-21T07:41:30Z</time>
      </trkpt>
      <trkpt lat="45.78609" lon="5.44871">
        <ele>210.413</ele>
        <time>2015-06-21T07:41:43Z</time>
      </trkpt>
      <trkpt lat="45.78628" lon="5.44842">
        <ele>210.337</ele>
        <time>2015-06-21T07:41:49Z</time>
      </trkpt>
      <trkpt lat="45.78673" lon="5.44776">
        <ele>210.22</ele>
        <time>2015-06-21T07:42:05Z</time>
      </trkpt>
      <trkpt lat="45.78682" lon="5.44763">
        <ele>210.307</ele>
        <time>2015-06-21T07:42:08Z</time>
      </trkpt>
      <trkpt lat="45.787" lon="5.44741">
        <ele>209.687</ele>
        <time>2015-06-21T07:42:13Z</time>
      </trkpt>
      <trkpt lat="45.7875" lon="5.44683">
        <ele>210.204</ele>
        <time>2015-06-21T07:42:29Z</time>
      </trkpt>
      <trkpt lat="45.78797" lon="5.44642">
        <ele>209.377</ele>
        <time>2015-06-21T07:42:43Z</time>
      </trkpt>
      <trkpt lat="45.7886" lon="5.44599">
        <ele>208.965</ele>
        <time>2015-06-21T07:43:01Z</time>
      </trkpt>
      <trkpt lat="45.78918" lon="5.44568">
        <ele>208.009</ele>
        <time>2015-06-21T07:43:14Z</time>
      </trkpt>
      <trkpt lat="45.78931" lon="5.44562">
        <ele>208.608</ele>
        <time>2015-06-21T07:43:17Z</time>
      </trkpt>
      <trkpt lat="45.78994" lon="5.44526">
        <ele>209.121</ele>
        <time>2015-06-21T07:43:34Z</time>
      </trkpt>
      <trkpt lat="45.79051" lon="5.44485">
        <ele>209.274</ele>
        <time>2015-06-21T07:43:49Z</time>
      </trkpt>
      <trkpt lat="45.79096" lon="5.44434">
        <ele>209.346</ele>
        <time>2015-06-21T07:44:04Z</time>
      </trkpt>
      <trkpt lat="45.79112" lon="5.44392">
        <ele>209.739</ele>
        <time>2015-06-21T07:44:15Z</time>
      </trkpt>
      <trkpt lat="45.79121" lon="5.44408">
        <ele>210.522</ele>
        <time>2015-06-21T07:44:21Z</time>
      </trkpt>
      <trkpt lat="45.79121" lon="5.44421">
        <ele>210.503</ele>
        <time>2015-06-21T07:44:36Z</time>
      </trkpt>
      <trkpt lat="45.79123" lon="5.44422">
        <ele>211.045</ele>
        <time>2015-06-21T07:44:57Z</time>
      </trkpt>
      <trkpt lat="45.79132" lon="5.44432">
        <ele>211.042</ele>
        <time>2015-06-21T07:46:10Z</time>
      </trkpt>
      <trkpt lat="45.79155" lon="5.44498">
        <ele>211.724</ele>
        <time>2015-06-21T07:46:25Z</time>
      </trkpt>
      <trkpt lat="45.79193" lon="5.44617">
        <ele>212.738</ele>
        <time>2015-06-21T07:46:44Z</time>
      </trkpt>
      <trkpt lat="45.7923" lon="5.4474">
        <ele>213.996</ele>
        <time>2015-06-21T07:47:06Z</time>
      </trkpt>
      <trkpt lat="45.79246" lon="5.44767">
        <ele>215.064</ele>
        <time>2015-06-21T07:47:16Z</time>
      </trkpt>
      <trkpt lat="45.7928" lon="5.44764">
        <ele>215.251</ele>
        <time>2015-06-21T07:47:28Z</time>
      </trkpt>
      <trkpt lat="45.79368" lon="5.44767">
        <ele>215.957</ele>
        <time>2015-06-21T07:47:51Z</time>
      </trkpt>
      <trkpt lat="45.79434" lon="5.44799">
        <ele>215.753</ele>
        <time>2015-06-21T07:48:09Z</time>
      </trkpt>
      <trkpt lat="45.79498" lon="5.44843">
        <ele>216.705</ele>
        <time>2015-06-21T07:48:28Z</time>
      </trkpt>
      <trkpt lat="45.79581" lon="5.449">
        <ele>217.96</ele>
        <time>2015-06-21T07:48:53Z</time>
      </trkpt>
      <trkpt lat="45.79603" lon="5.44914">
        <ele>219.468</ele>
        <time>2015-06-21T07:49:01Z</time>
      </trkpt>
      <trkpt lat="45.79664" lon="5.44937">
        <ele>219.841</ele>
        <time>2015-06-21T07:49:19Z</time>
      </trkpt>
      <trkpt lat="45.79735" lon="5.44975">
        <ele>221.815</ele>
        <time>2015-06-21T07:49:40Z</time>
      </trkpt>
      <trkpt lat="45.79792" lon="5.44996">
        <ele>222.349</ele>
        <time>2015-06-21T07:49:56Z</time>
      </trkpt>
      <trkpt lat="45.79844" lon="5.45004">
        <ele>223.247</ele>
        <time>2015-06-21T07:50:11Z</time>
      </trkpt>
      <trkpt lat="45.79898" lon="5.45022">
        <ele>224.388</ele>
        <time>2015-06-21T07:50:27Z</time>
      </trkpt>
      <trkpt lat="45.79943" lon="5.4507">
        <ele>225.519</ele>
        <time>2015-06-21T07:50:44Z</time>
      </trkpt>
      <trkpt lat="45.79993" lon="5.45113">
        <ele>226.87</ele>
        <time>2015-06-21T07:51:03Z</time>
      </trkpt>
      <trkpt lat="45.80042" lon="5.4514">
        <ele>227.53</ele>
        <time>2015-06-21T07:51:19Z</time>
      </trkpt>
      <trkpt lat="45.80111" lon="5.45176">
        <ele>228.378</ele>
        <time>2015-06-21T07:51:39Z</time>
      </trkpt>
      <trkpt lat="45.80177" lon="5.45212">
        <ele>230.78</ele>
        <time>2015-06-21T07:51:58Z</time>
      </trkpt>
      <trkpt lat="45.80235" lon="5.45259">
        <ele>232.049</ele>
        <time>2015-06-21T07:52:17Z</time>
      </trkpt>
      <trkpt lat="45.80289" lon="5.45279">
        <ele>233.203</ele>
        <time>2015-06-21T07:52:34Z</time>
      </trkpt>
      <trkpt lat="45.80351" lon="5.45282">
        <ele>235.114</ele>
        <time>2015-06-21T07:52:52Z</time>
      </trkpt>
      <trkpt lat="45.80418" lon="5.453">
        <ele>235.906</ele>
        <time>2015-06-21T07:53:12Z</time>
      </trkpt>
      <trkpt lat="45.80472" lon="5.45317">
        <ele>237.243</ele>
        <time>2015-06-21T07:53:29Z</time>
      </trkpt>
      <trkpt lat="45.80514" lon="5.45364">
        <ele>238.805</ele>
        <time>2015-06-21T07:53:45Z</time>
      </trkpt>
      <trkpt lat="45.80525" lon="5.45374">
        <ele>239.233</ele>
        <time>2015-06-21T07:53:50Z</time>
      </trkpt>
      <trkpt lat="45.80531" lon="5.4538">
        <ele>239.51</ele>
        <time>2015-06-21T07:54:13Z</time>
      </trkpt>
      <trkpt lat="45.8056" lon="5.45392">
        <ele>239.037</ele>
        <time>2015-06-21T07:55:42Z</time>
      </trkpt>
      <trkpt lat="45.80601" lon="5.45398">
        <ele>237.539</ele>
        <time>2015-06-21T07:55:51Z</time>
      </trkpt>
      <trkpt lat="45.80643" lon="5.45384">
        <ele>237.111</ele>
        <time>2015-06-21T07:56:00Z</time>
      </trkpt>
      <trkpt lat="45.80681" lon="5.45364">
        <ele>236.556</ele>
        <time>2015-06-21T07:56:08Z</time>
      </trkpt>
      <trkpt lat="45.80694" lon="5.45361">
        <ele>237.766</ele>
        <time>2015-06-21T07:56:13Z</time>
      </trkpt>
      <trkpt lat="45.80696" lon="5.45365">
        <ele>238.335</ele>
        <time>2015-06-21T07:56:14Z</time>
      </trkpt>
      <trkpt lat="45.80728" lon="5.45425">
        <ele>241.151</ele>
        <time>2015-06-21T07:56:31Z</time>
      </trkpt>
      <trkpt lat="45.80751" lon="5.45463">
        <ele>242.737</ele>
        <time>2015-06-21T07:56:44Z</time>
      </trkpt>
      <trkpt lat="45.80789" lon="5.45501">
        <ele>243.44</ele>
        <time>2015-06-21T07:56:59Z</time>
      </trkpt>
      <trkpt lat="45.80803" lon="5.45498">
        <ele>244.909</ele>
        <time>2015-06-21T07:57:06Z</time>
      </trkpt>
      <trkpt lat="45.80807" lon="5.45505">
        <ele>246.457</ele>
        <time>2015-06-21T07:57:10Z</time>
      </trkpt>
      <trkpt lat="45.808" lon="5.4552">
        <ele>247.514</ele>
        <time>2015-06-21T07:57:16Z</time>
      </trkpt>
      <trkpt lat="45.80807" lon="5.45561">
        <ele>251.221</ele>
        <time>2015-06-21T07:57:31Z</time>
      </trkpt>
      <trkpt lat="45.80815" lon="5.45593">
        <ele>254.86</ele>
        <time>2015-06-21T07:57:45Z</time>
      </trkpt>
      <trkpt lat="45.80823" lon="5.45621">
        <ele>258.139</ele>
        <time>2015-06-21T07:58:00Z</time>
      </trkpt>
      <trkpt lat="45.8083" lon="5.45648">
        <ele>261.716</ele>
        <time>2015-06-21T07:58:14Z</time>
      </trkpt>
      <trkpt lat="45.80832" lon="5.45652">
        <ele>262.366</ele>
        <time>2015-06-21T07:58:16Z</time>
      </trkpt>
      <trkpt lat="45.80841" lon="5.45675">
        <ele>265.831</ele>
        <time>2015-06-21T07:58:29Z</time>
      </trkpt>
      <trkpt lat="45.8085" lon="5.4569">
        <ele>268.283</ele>
        <time>2015-06-21T07:58:39Z</time>
      </trkpt>
      <trkpt lat="45.80857" lon="5.45697">
        <ele>269.704</ele>
        <time>2015-06-21T07:58:45Z</time>
      </trkpt>
      <trkpt lat="45.80862" lon="5.45699">
        <ele>270.362</ele>
        <time>2015-06-21T07:58:48Z</time>
      </trkpt>
      <trkpt lat="45.80867" lon="5.4571">
        <ele>271.546</ele>
        <time>2015-06-21T07:59:01Z</time>
      </trkpt>
      <trkpt lat="45.80872" lon="5.45714">
        <ele>272.333</ele>
        <time>2015-06-21T08:00:54Z</time>
      </trkpt>
      <trkpt lat="45.80875" lon="5.45719">
        <ele>272.22</ele>
        <time>2015-06-21T08:01:23Z</time>
      </trkpt>
      <trkpt lat="45.80888" lon="5.4574">
        <ele>273.956</ele>
        <time>2015-06-21T08:02:15Z</time>
      </trkpt>
      <trkpt lat="45.80892" lon="5.45757">
        <ele>275.116</ele>
        <time>2015-06-21T08:02:23Z</time>
      </trkpt>
      <trkpt lat="45.80892" lon="5.45764">
        <ele>275.306</ele>
        <time>2015-06-21T08:02:26Z</time>
      </trkpt>
      <trkpt lat="45.80892" lon="5.45769">
        <ele>275.43</ele>
        <time>2015-06-21T08:02:28Z</time>
      </trkpt>
      <trkpt lat="45.809" lon="5.45799">
        <ele>277.895</ele>
        <time>2015-06-21T08:02:39Z</time>
      </trkpt>
      <trkpt lat="45.80901" lon="5.45817">
        <ele>278.96</ele>
        <time>2015-06-21T08:02:46Z</time>
      </trkpt>
      <trkpt lat="45.80901" lon="5.45821">
        <ele>279.224</ele>
        <time>2015-06-21T08:02:48Z</time>
      </trkpt>
      <trkpt lat="45.80904" lon="5.45833">
        <ele>279.756</ele>
        <time>2015-06-21T08:02:53Z</time>
      </trkpt>
      <trkpt lat="45.80903" lon="5.45843">
        <ele>280.91</ele>
        <time>2015-06-21T08:02:58Z</time>
      </trkpt>
      <trkpt lat="45.80904" lon="5.45854">
        <ele>281.431</ele>
        <time>2015-06-21T08:03:03Z</time>
      </trkpt>
      <trkpt lat="45.80904" lon="5.45861">
        <ele>281.851</ele>
        <time>2015-06-21T08:03:06Z</time>
      </trkpt>
      <trkpt lat="45.8091" lon="5.45881">
        <ele>283.066</ele>
        <time>2015-06-21T08:03:13Z</time>
      </trkpt>
      <trkpt lat="45.80915" lon="5.45894">
        <ele>283.664</ele>
        <time>2015-06-21T08:03:18Z</time>
      </trkpt>
      <trkpt lat="45.80915" lon="5.45902">
        <ele>284.382</ele>
        <time>2015-06-21T08:03:22Z</time>
      </trkpt>
      <trkpt lat="45.8093" lon="5.45943">
        <ele>286.903</ele>
        <time>2015-06-21T08:03:38Z</time>
      </trkpt>
      <trkpt lat="45.80955" lon="5.45989">
        <ele>289.054</ele>
        <time>2015-06-21T08:03:56Z</time>
      </trkpt>
      <trkpt lat="45.8097" lon="5.46014">
        <ele>290.901</ele>
        <time>2015-06-21T08:04:07Z</time>
      </trkpt>
      <trkpt lat="45.80992" lon="5.46052">
        <ele>293.675</ele>
        <time>2015-06-21T08:04:26Z</time>
      </trkpt>
      <trkpt lat="45.8101" lon="5.46079">
        <ele>295.467</ele>
        <time>2015-06-21T08:04:39Z</time>
      </trkpt>
      <trkpt lat="45.81016" lon="5.46091">
        <ele>296.307</ele>
        <time>2015-06-21T08:04:44Z</time>
      </trkpt>
      <trkpt lat="45.8103" lon="5.46121">
        <ele>298.437</ele>
        <time>2015-06-21T08:04:59Z</time>
      </trkpt>
      <trkpt lat="45.81035" lon="5.46132">
        <ele>299.314</ele>
        <time>2015-06-21T08:05:05Z</time>
      </trkpt>
      <trkpt lat="45.81039" lon="5.46139">
        <ele>300.038</ele>
        <time>2015-06-21T08:05:09Z</time>
      </trkpt>
      <trkpt lat="45.81049" lon="5.46166">
        <ele>302.31</ele>
        <time>2015-06-21T08:05:24Z</time>
      </trkpt>
      <trkpt lat="45.81061" lon="5.46199">
        <ele>304.897</ele>
        <time>2015-06-21T08:05:39Z</time>
      </trkpt>
      <trkpt lat="45.81079" lon="5.46224">
        <ele>306.599</ele>
        <time>2015-06-21T08:05:52Z</time>
      </trkpt>
      <trkpt lat="45.81087" lon="5.4624">
        <ele>308.005</ele>
        <time>2015-06-21T08:05:59Z</time>
      </trkpt>
      <trkpt lat="45.8113" lon="5.46286">
        <ele>311.434</ele>
        <time>2015-06-21T08:06:19Z</time>
      </trkpt>
      <trkpt lat="45.8116" lon="5.4631">
        <ele>313.775</ele>
        <time>2015-06-21T08:06:38Z</time>
      </trkpt>
      <trkpt lat="45.81178" lon="5.46318">
        <ele>315.921</ele>
        <time>2015-06-21T08:06:51Z</time>
      </trkpt>
      <trkpt lat="45.81201" lon="5.46339">
        <ele>318.413</ele>
        <time>2015-06-21T08:07:07Z</time>
      </trkpt>
      <trkpt lat="45.81226" lon="5.46369">
        <ele>320.915</ele>
        <time>2015-06-21T08:07:24Z</time>
      </trkpt>
      <trkpt lat="45.81249" lon="5.46404">
        <ele>323.724</ele>
        <time>2015-06-21T08:07:42Z</time>
      </trkpt>
      <trkpt lat="45.81264" lon="5.46454">
        <ele>326.86</ele>
        <time>2015-06-21T08:08:02Z</time>
      </trkpt>
      <trkpt lat="45.81289" lon="5.46486">
        <ele>329.392</ele>
        <time>2015-06-21T08:08:19Z</time>
      </trkpt>
      <trkpt lat="45.81314" lon="5.46499">
        <ele>331.476</ele>
        <time>2015-06-21T08:08:33Z</time>
      </trkpt>
      <trkpt lat="45.81345" lon="5.46515">
        <ele>334.206</ele>
        <time>2015-06-21T08:08:51Z</time>
      </trkpt>
      <trkpt lat="45.81371" lon="5.46547">
        <ele>336.507</ele>
        <time>2015-06-21T08:09:08Z</time>
      </trkpt>
      <trkpt lat="45.81397" lon="5.46583">
        <ele>339.57</ele>
        <time>2015-06-21T08:09:26Z</time>
      </trkpt>
      <trkpt lat="45.81433" lon="5.46606">
        <ele>342.408</ele>
        <time>2015-06-21T08:09:46Z</time>
      </trkpt>
      <trkpt lat="45.81476" lon="5.46631">
        <ele>344.717</ele>
        <time>2015-06-21T08:10:04Z</time>
      </trkpt>
      <trkpt lat="45.81506" lon="5.46625">
        <ele>347.18</ele>
        <time>2015-06-21T08:10:21Z</time>
      </trkpt>
      <trkpt lat="45.81527" lon="5.46607">
        <ele>349.534</ele>
        <time>2015-06-21T08:10:36Z</time>
      </trkpt>
      <trkpt lat="45.81554" lon="5.46561">
        <ele>352.245</ele>
        <time>2015-06-21T08:10:57Z</time>
      </trkpt>
      <trkpt lat="45.81585" lon="5.46541">
        <ele>355.342</ele>
        <time>2015-06-21T08:11:15Z</time>
      </trkpt>
      <trkpt lat="45.81596" lon="5.46537">
        <ele>356.132</ele>
        <time>2015-06-21T08:11:21Z</time>
      </trkpt>
      <trkpt lat="45.816" lon="5.46533">
        <ele>356.259</ele>
        <time>2015-06-21T08:11:24Z</time>
      </trkpt>
      <trkpt lat="45.81615" lon="5.46525">
        <ele>358.161</ele>
        <time>2015-06-21T08:11:34Z</time>
      </trkpt>
      <trkpt lat="45.81649" lon="5.46513">
        <ele>358.819</ele>
        <time>2015-06-21T08:11:49Z</time>
      </trkpt>
      <trkpt lat="45.81686" lon="5.46534">
        <ele>360.97</ele>
        <time>2015-06-21T08:12:05Z</time>
      </trkpt>
      <trkpt lat="45.81735" lon="5.46566">
        <ele>364.114</ele>
        <time>2015-06-21T08:12:29Z</time>
      </trkpt>
      <trkpt lat="45.81781" lon="5.46597">
        <ele>367.52</ele>
        <time>2015-06-21T08:12:52Z</time>
      </trkpt>
      <trkpt lat="45.81824" lon="5.46599">
        <ele>370.905</ele>
        <time>2015-06-21T08:13:13Z</time>
      </trkpt>
      <trkpt lat="45.81872" lon="5.46576">
        <ele>374.145</ele>
        <time>2015-06-21T08:13:38Z</time>
      </trkpt>
      <trkpt lat="45.81919" lon="5.46568">
        <ele>377.268</ele>
        <time>2015-06-21T08:14:01Z</time>
      </trkpt>
      <trkpt lat="45.81963" lon="5.46574">
        <ele>380.38</ele>
        <time>2015-06-21T08:14:22Z</time>
      </trkpt>
      <trkpt lat="45.82006" lon="5.46573">
        <ele>383.165</ele>
        <time>2015-06-21T08:14:43Z</time>
      </trkpt>
      <trkpt lat="45.82045" lon="5.46573">
        <ele>386.283</ele>
        <time>2015-06-21T08:15:04Z</time>
      </trkpt>
      <trkpt lat="45.82064" lon="5.46588">
        <ele>383.969</ele>
        <time>2015-06-21T08:18:43Z</time>
      </trkpt>
      <trkpt lat="45.82086" lon="5.46617">
        <ele>381.678</ele>
        <time>2015-06-21T08:18:51Z</time>
      </trkpt>
      <trkpt lat="45.8211" lon="5.4664">
        <ele>379.12</ele>
        <time>2015-06-21T08:18:56Z</time>
      </trkpt>
      <trkpt lat="45.82149" lon="5.46686">
        <ele>375.814</ele>
        <time>2015-06-21T08:19:04Z</time>
      </trkpt>
      <trkpt lat="45.8216" lon="5.46698">
        <ele>374.985</ele>
        <time>2015-06-21T08:19:06Z</time>
      </trkpt>
      <trkpt lat="45.82186" lon="5.46733">
        <ele>373.074</ele>
        <time>2015-06-21T08:19:11Z</time>
      </trkpt>
      <trkpt lat="45.82196" lon="5.46766">
        <ele>370.221</ele>
        <time>2015-06-21T08:19:15Z</time>
      </trkpt>
      <trkpt lat="45.82198" lon="5.46776">
        <ele>369.378</ele>
        <time>2015-06-21T08:19:16Z</time>
      </trkpt>
      <trkpt lat="45.82203" lon="5.46793">
        <ele>368.691</ele>
        <time>2015-06-21T08:19:18Z</time>
      </trkpt>
      <trkpt lat="45.82205" lon="5.46802">
        <ele>367.494</ele>
        <time>2015-06-21T08:19:19Z</time>
      </trkpt>
      <trkpt lat="45.82195" lon="5.46839">
        <ele>368.083</ele>
        <time>2015-06-21T08:19:24Z</time>
      </trkpt>
      <trkpt lat="45.82176" lon="5.46814">
        <ele>368.265</ele>
        <time>2015-06-21T08:19:33Z</time>
      </trkpt>
      <trkpt lat="45.82162" lon="5.46781">
        <ele>368.794</ele>
        <time>2015-06-21T08:19:44Z</time>
      </trkpt>
      <trkpt lat="45.82137" lon="5.46739">
        <ele>368.857</ele>
        <time>2015-06-21T08:19:54Z</time>
      </trkpt>
      <trkpt lat="45.82106" lon="5.46711">
        <ele>369.687</ele>
        <time>2015-06-21T08:20:03Z</time>
      </trkpt>
      <trkpt lat="45.82077" lon="5.46712">
        <ele>370.9</ele>
        <time>2015-06-21T08:20:13Z</time>
      </trkpt>
      <trkpt lat="45.82041" lon="5.46732">
        <ele>371.722</ele>
        <time>2015-06-21T08:20:25Z</time>
      </trkpt>
      <trkpt lat="45.82039" lon="5.46733">
        <ele>371.587</ele>
        <time>2015-06-21T08:20:26Z</time>
      </trkpt>
      <trkpt lat="45.81997" lon="5.46735">
        <ele>372.284</ele>
        <time>2015-06-21T08:20:39Z</time>
      </trkpt>
      <trkpt lat="45.81965" lon="5.46751">
        <ele>373.479</ele>
        <time>2015-06-21T08:20:50Z</time>
      </trkpt>
      <trkpt lat="45.81953" lon="5.46764">
        <ele>373.97</ele>
        <time>2015-06-21T08:21:10Z</time>
      </trkpt>
      <trkpt lat="45.81945" lon="5.46775">
        <ele>374.647</ele>
        <time>2015-06-21T08:21:25Z</time>
      </trkpt>
      <trkpt lat="45.81938" lon="5.46799">
        <ele>374.385</ele>
        <time>2015-06-21T08:23:21Z</time>
      </trkpt>
      <trkpt lat="45.81946" lon="5.46854">
        <ele>375.669</ele>
        <time>2015-06-21T08:23:36Z</time>
      </trkpt>
      <trkpt lat="45.81976" lon="5.46891">
        <ele>376.594</ele>
        <time>2015-06-21T08:23:50Z</time>
      </trkpt>
      <trkpt lat="45.8201" lon="5.46933">
        <ele>377.934</ele>
        <time>2015-06-21T08:24:08Z</time>
      </trkpt>
      <trkpt lat="45.81999" lon="5.46974">
        <ele>377.963</ele>
        <time>2015-06-21T08:24:19Z</time>
      </trkpt>
      <trkpt lat="45.81994" lon="5.46983">
        <ele>378.914</ele>
        <time>2015-06-21T08:24:22Z</time>
      </trkpt>
      <trkpt lat="45.82001" lon="5.47">
        <ele>379.109</ele>
        <time>2015-06-21T08:24:28Z</time>
      </trkpt>
      <trkpt lat="45.82018" lon="5.47012">
        <ele>379.033</ele>
        <time>2015-06-21T08:24:34Z</time>
      </trkpt>
      <trkpt lat="45.82024" lon="5.47034">
        <ele>379.588</ele>
        <time>2015-06-21T08:24:40Z</time>
      </trkpt>
      <trkpt lat="45.82003" lon="5.47079">
        <ele>379.979</ele>
        <time>2015-06-21T08:24:54Z</time>
      </trkpt>
      <trkpt lat="45.81997" lon="5.47088">
        <ele>380.333</ele>
        <time>2015-06-21T08:24:57Z</time>
      </trkpt>
      <trkpt lat="45.82003" lon="5.47108">
        <ele>381.21</ele>
        <time>2015-06-21T08:25:03Z</time>
      </trkpt>
      <trkpt lat="45.82024" lon="5.47159">
        <ele>382.706</ele>
        <time>2015-06-21T08:25:18Z</time>
      </trkpt>
      <trkpt lat="45.82003" lon="5.4721">
        <ele>384.193</ele>
        <time>2015-06-21T08:25:33Z</time>
      </trkpt>
      <trkpt lat="45.8202" lon="5.4727">
        <ele>385.425</ele>
        <time>2015-06-21T08:25:49Z</time>
      </trkpt>
      <trkpt lat="45.82056" lon="5.47318">
        <ele>388.775</ele>
        <time>2015-06-21T08:26:09Z</time>
      </trkpt>
      <trkpt lat="45.82086" lon="5.47364">
        <ele>391.84</ele>
        <time>2015-06-21T08:26:29Z</time>
      </trkpt>
      <trkpt lat="45.82089" lon="5.47415">
        <ele>394.279</ele>
        <time>2015-06-21T08:26:46Z</time>
      </trkpt>
      <trkpt lat="45.82089" lon="5.4746">
        <ele>397.032</ele>
        <time>2015-06-21T08:27:03Z</time>
      </trkpt>
      <trkpt lat="45.82083" lon="5.47507">
        <ele>400.039</ele>
        <time>2015-06-21T08:27:21Z</time>
      </trkpt>
      <trkpt lat="45.82068" lon="5.47559">
        <ele>402.549</ele>
        <time>2015-06-21T08:27:42Z</time>
      </trkpt>
      <trkpt lat="45.82065" lon="5.47604">
        <ele>405.665</ele>
        <time>2015-06-21T08:27:58Z</time>
      </trkpt>
      <trkpt lat="45.82053" lon="5.47643">
        <ele>407.152</ele>
        <time>2015-06-21T08:28:14Z</time>
      </trkpt>
      <trkpt lat="45.82055" lon="5.47681">
        <ele>409.715</ele>
        <time>2015-06-21T08:28:30Z</time>
      </trkpt>
      <trkpt lat="45.82071" lon="5.47728">
        <ele>412.976</ele>
        <time>2015-06-21T08:28:49Z</time>
      </trkpt>
      <trkpt lat="45.82088" lon="5.47773">
        <ele>415.703</ele>
        <time>2015-06-21T08:29:07Z</time>
      </trkpt>
      <trkpt lat="45.82089" lon="5.47776">
        <ele>415.703</ele>
        <time>2015-06-21T08:29:08Z</time>
      </trkpt>
      <trkpt lat="45.8209" lon="5.47782">
        <ele>416.097</ele>
        <time>2015-06-21T08:29:11Z</time>
      </trkpt>
      <trkpt lat="45.82088" lon="5.47794">
        <ele>416.186</ele>
        <time>2015-06-21T08:29:15Z</time>
      </trkpt>
      <trkpt lat="45.82085" lon="5.47803">
        <ele>417.011</ele>
        <time>2015-06-21T08:29:18Z</time>
      </trkpt>
      <trkpt lat="45.82083" lon="5.47811">
        <ele>418.007</ele>
        <time>2015-06-21T08:29:21Z</time>
      </trkpt>
      <trkpt lat="45.82084" lon="5.47855">
        <ele>419.421</ele>
        <time>2015-06-21T08:29:37Z</time>
      </trkpt>
      <trkpt lat="45.82086" lon="5.47871">
        <ele>421.122</ele>
        <time>2015-06-21T08:29:43Z</time>
      </trkpt>
      <trkpt lat="45.82077" lon="5.47916">
        <ele>423.374</ele>
        <time>2015-06-21T08:30:01Z</time>
      </trkpt>
      <trkpt lat="45.82054" lon="5.47949">
        <ele>426.296</ele>
        <time>2015-06-21T08:30:22Z</time>
      </trkpt>
      <trkpt lat="45.82049" lon="5.47957">
        <ele>426.782</ele>
        <time>2015-06-21T08:30:27Z</time>
      </trkpt>
      <trkpt lat="45.82048" lon="5.47961">
        <ele>427.131</ele>
        <time>2015-06-21T08:30:29Z</time>
      </trkpt>
      <trkpt lat="45.8205" lon="5.47966">
        <ele>428.893</ele>
        <time>2015-06-21T08:30:36Z</time>
      </trkpt>
      <trkpt lat="45.82055" lon="5.47961">
        <ele>429.979</ele>
        <time>2015-06-21T08:30:41Z</time>
      </trkpt>
      <trkpt lat="45.8207" lon="5.47949">
        <ele>431.298</ele>
        <time>2015-06-21T08:30:52Z</time>
      </trkpt>
      <trkpt lat="45.82088" lon="5.47956">
        <ele>432.534</ele>
        <time>2015-06-21T08:31:02Z</time>
      </trkpt>
      <trkpt lat="45.8209" lon="5.47959">
        <ele>432.315</ele>
        <time>2015-06-21T08:31:04Z</time>
      </trkpt>
      <trkpt lat="45.8211" lon="5.47949">
        <ele>434.569</ele>
        <time>2015-06-21T08:31:18Z</time>
      </trkpt>
      <trkpt lat="45.82112" lon="5.47945">
        <ele>434.395</ele>
        <time>2015-06-21T08:31:20Z</time>
      </trkpt>
      <trkpt lat="45.82121" lon="5.47921">
        <ele>436.205</ele>
        <time>2015-06-21T08:31:33Z</time>
      </trkpt>
      <trkpt lat="45.82125" lon="5.47866">
        <ele>438.464</ele>
        <time>2015-06-21T08:31:49Z</time>
      </trkpt>
      <trkpt lat="45.82126" lon="5.4785">
        <ele>439.552</ele>
        <time>2015-06-21T08:31:55Z</time>
      </trkpt>
      <trkpt lat="45.82143" lon="5.47822">
        <ele>441.611</ele>
        <time>2015-06-21T08:32:09Z</time>
      </trkpt>
      <trkpt lat="45.82149" lon="5.47807">
        <ele>442.948</ele>
        <time>2015-06-21T08:32:18Z</time>
      </trkpt>
      <trkpt lat="45.82156" lon="5.4777">
        <ele>444.295</ele>
        <time>2015-06-21T08:32:30Z</time>
      </trkpt>
      <trkpt lat="45.82146" lon="5.47733">
        <ele>446.346</ele>
        <time>2015-06-21T08:32:45Z</time>
      </trkpt>
      <trkpt lat="45.82142" lon="5.47689">
        <ele>448.809</ele>
        <time>2015-06-21T08:33:00Z</time>
      </trkpt>
      <trkpt lat="45.82155" lon="5.47648">
        <ele>451.601</ele>
        <time>2015-06-21T08:33:16Z</time>
      </trkpt>
      <trkpt lat="45.82158" lon="5.47634">
        <ele>451.876</ele>
        <time>2015-06-21T08:33:21Z</time>
      </trkpt>
      <trkpt lat="45.8218" lon="5.47608">
        <ele>454.212</ele>
        <time>2015-06-21T08:33:37Z</time>
      </trkpt>
      <trkpt lat="45.82193" lon="5.47604">
        <ele>455.422</ele>
        <time>2015-06-21T08:33:44Z</time>
      </trkpt>
      <trkpt lat="45.82196" lon="5.47606">
        <ele>456.109</ele>
        <time>2015-06-21T08:33:46Z</time>
      </trkpt>
      <trkpt lat="45.82191" lon="5.47631">
        <ele>457.417</ele>
        <time>2015-06-21T08:33:58Z</time>
      </trkpt>
      <trkpt lat="45.82185" lon="5.47677">
        <ele>460.488</ele>
        <time>2015-06-21T08:34:15Z</time>
      </trkpt>
      <trkpt lat="45.82191" lon="5.47714">
        <ele>462.028</ele>
        <time>2015-06-21T08:40:42Z</time>
      </trkpt>
      <trkpt lat="45.82191" lon="5.47727">
        <ele>462.232</ele>
        <time>2015-06-21T08:40:59Z</time>
      </trkpt>
      <trkpt lat="45.82191" lon="5.47733">
        <ele>462.987</ele>
        <time>2015-06-21T08:41:34Z</time>
      </trkpt>
      <trkpt lat="45.82197" lon="5.47775">
        <ele>465.228</ele>
        <time>2015-06-21T08:41:51Z</time>
      </trkpt>
      <trkpt lat="45.82198" lon="5.4779">
        <ele>466.367</ele>
        <time>2015-06-21T08:41:58Z</time>
      </trkpt>
      <trkpt lat="45.82203" lon="5.47832">
        <ele>469.873</ele>
        <time>2015-06-21T08:42:16Z</time>
      </trkpt>
      <trkpt lat="45.82207" lon="5.47855">
        <ele>471.316</ele>
        <time>2015-06-21T08:42:27Z</time>
      </trkpt>
      <trkpt lat="45.82211" lon="5.47904">
        <ele>473.831</ele>
        <time>2015-06-21T08:42:47Z</time>
      </trkpt>
      <trkpt lat="45.8222" lon="5.47962">
        <ele>476.186</ele>
        <time>2015-06-21T08:43:09Z</time>
      </trkpt>
      <trkpt lat="45.82226" lon="5.48018">
        <ele>479.573</ele>
        <time>2015-06-21T08:43:31Z</time>
      </trkpt>
      <trkpt lat="45.82222" lon="5.48055">
        <ele>481.867</ele>
        <time>2015-06-21T08:43:46Z</time>
      </trkpt>
      <trkpt lat="45.82219" lon="5.48065">
        <ele>482.34</ele>
        <time>2015-06-21T08:43:50Z</time>
      </trkpt>
      <trkpt lat="45.82215" lon="5.48105">
        <ele>484.496</ele>
        <time>2015-06-21T08:44:05Z</time>
      </trkpt>
      <trkpt lat="45.82214" lon="5.48156">
        <ele>487.63</ele>
        <time>2015-06-21T08:44:24Z</time>
      </trkpt>
      <trkpt lat="45.82201" lon="5.48203">
        <ele>488.023</ele>
        <time>2015-06-21T08:44:39Z</time>
      </trkpt>
      <trkpt lat="45.82187" lon="5.48239">
        <ele>489.944</ele>
        <time>2015-06-21T08:44:51Z</time>
      </trkpt>
      <trkpt lat="45.82154" lon="5.48275">
        <ele>492.346</ele>
        <time>2015-06-21T08:45:08Z</time>
      </trkpt>
      <trkpt lat="45.8212" lon="5.48305">
        <ele>495.356</ele>
        <time>2015-06-21T08:45:27Z</time>
      </trkpt>
      <trkpt lat="45.82084" lon="5.48337">
        <ele>497.813</ele>
        <time>2015-06-21T08:45:50Z</time>
      </trkpt>
      <trkpt lat="45.82049" lon="5.48365">
        <ele>500.405</ele>
        <time>2015-06-21T08:46:11Z</time>
      </trkpt>
      <trkpt lat="45.82018" lon="5.48377">
        <ele>502.194</ele>
        <time>2015-06-21T08:46:27Z</time>
      </trkpt>
      <trkpt lat="45.81992" lon="5.48386">
        <ele>503.383</ele>
        <time>2015-06-21T08:46:39Z</time>
      </trkpt>
      <trkpt lat="45.81961" lon="5.4843">
        <ele>505.64</ele>
        <time>2015-06-21T08:46:57Z</time>
      </trkpt>
      <trkpt lat="45.81929" lon="5.48481">
        <ele>507.925</ele>
        <time>2015-06-21T08:47:16Z</time>
      </trkpt>
      <trkpt lat="45.81923" lon="5.48488">
        <ele>509.587</ele>
        <time>2015-06-21T08:49:23Z</time>
      </trkpt>
      <trkpt lat="45.81925" lon="5.48499">
        <ele>509.865</ele>
        <time>2015-06-21T08:49:29Z</time>
      </trkpt>
      <trkpt lat="45.81913" lon="5.48544">
        <ele>513.585</ele>
        <time>2015-06-21T08:49:45Z</time>
      </trkpt>
      <trkpt lat="45.81916" lon="5.48589">
        <ele>517.039</ele>
        <time>2015-06-21T08:50:00Z</time>
      </trkpt>
      <trkpt lat="45.81915" lon="5.48592">
        <ele>517.039</ele>
        <time>2015-06-21T08:50:01Z</time>
      </trkpt>
      <trkpt lat="45.81906" lon="5.48646">
        <ele>518.523</ele>
        <time>2015-06-21T08:50:22Z</time>
      </trkpt>
      <trkpt lat="45.81901" lon="5.4867">
        <ele>519.937</ele>
        <time>2015-06-21T08:50:32Z</time>
      </trkpt>
      <trkpt lat="45.81894" lon="5.48679">
        <ele>521.412</ele>
        <time>2015-06-21T08:50:48Z</time>
      </trkpt>
      <trkpt lat="45.8188" lon="5.48718">
        <ele>522.503</ele>
        <time>2015-06-21T08:51:26Z</time>
      </trkpt>
      <trkpt lat="45.81864" lon="5.48752">
        <ele>524.833</ele>
        <time>2015-06-21T08:51:41Z</time>
      </trkpt>
      <trkpt lat="45.81862" lon="5.48791">
        <ele>527.325</ele>
        <time>2015-06-21T08:51:57Z</time>
      </trkpt>
      <trkpt lat="45.81876" lon="5.48857">
        <ele>530.028</ele>
        <time>2015-06-21T08:52:21Z</time>
      </trkpt>
      <trkpt lat="45.8186" lon="5.48905">
        <ele>533.014</ele>
        <time>2015-06-21T08:52:39Z</time>
      </trkpt>
      <trkpt lat="45.81843" lon="5.48949">
        <ele>535.45</ele>
        <time>2015-06-21T08:52:57Z</time>
      </trkpt>
      <trkpt lat="45.81825" lon="5.48994">
        <ele>536.766</ele>
        <time>2015-06-21T08:53:14Z</time>
      </trkpt>
      <trkpt lat="45.81839" lon="5.49039">
        <ele>539.062</ele>
        <time>2015-06-21T08:53:31Z</time>
      </trkpt>
      <trkpt lat="45.81859" lon="5.49089">
        <ele>541.802</ele>
        <time>2015-06-21T08:53:51Z</time>
      </trkpt>
      <trkpt lat="45.8188" lon="5.49142">
        <ele>544.923</ele>
        <time>2015-06-21T08:54:12Z</time>
      </trkpt>
      <trkpt lat="45.81894" lon="5.49188">
        <ele>547.018</ele>
        <time>2015-06-21T08:54:30Z</time>
      </trkpt>
      <trkpt lat="45.81897" lon="5.49228">
        <ele>548.884</ele>
        <time>2015-06-21T08:54:44Z</time>
      </trkpt>
      <trkpt lat="45.819" lon="5.49255">
        <ele>550.073</ele>
        <time>2015-06-21T08:54:54Z</time>
      </trkpt>
      <trkpt lat="45.819" lon="5.493">
        <ele>551.708</ele>
        <time>2015-06-21T08:55:10Z</time>
      </trkpt>
      <trkpt lat="45.81903" lon="5.49347">
        <ele>554.314</ele>
        <time>2015-06-21T08:55:27Z</time>
      </trkpt>
      <trkpt lat="45.8193" lon="5.49382">
        <ele>556.61</ele>
        <time>2015-06-21T08:55:45Z</time>
      </trkpt>
      <trkpt lat="45.81962" lon="5.49424">
        <ele>559.136</ele>
        <time>2015-06-21T08:56:07Z</time>
      </trkpt>
      <trkpt lat="45.81976" lon="5.49441">
        <ele>561.017</ele>
        <time>2015-06-21T08:56:17Z</time>
      </trkpt>
      <trkpt lat="45.82005" lon="5.49474">
        <ele>563.195</ele>
        <time>2015-06-21T08:56:37Z</time>
      </trkpt>
      <trkpt lat="45.82023" lon="5.49502">
        <ele>566.257</ele>
        <time>2015-06-21T08:56:52Z</time>
      </trkpt>
      <trkpt lat="45.82041" lon="5.4953">
        <ele>567.972</ele>
        <time>2015-06-21T08:57:07Z</time>
      </trkpt>
      <trkpt lat="45.82059" lon="5.49558">
        <ele>570.876</ele>
        <time>2015-06-21T08:57:22Z</time>
      </trkpt>
      <trkpt lat="45.82061" lon="5.49561">
        <ele>570.939</ele>
        <time>2015-06-21T08:57:24Z</time>
      </trkpt>
      <trkpt lat="45.82084" lon="5.49581">
        <ele>571.988</ele>
        <time>2015-06-21T08:57:37Z</time>
      </trkpt>
      <trkpt lat="45.821" lon="5.49591">
        <ele>572.947</ele>
        <time>2015-06-21T08:57:45Z</time>
      </trkpt>
      <trkpt lat="45.82114" lon="5.49596">
        <ele>574.144</ele>
        <time>2015-06-21T08:57:53Z</time>
      </trkpt>
      <trkpt lat="45.82141" lon="5.49616">
        <ele>575.648</ele>
        <time>2015-06-21T08:58:08Z</time>
      </trkpt>
      <trkpt lat="45.8217" lon="5.49649">
        <ele>578.573</ele>
        <time>2015-06-21T08:58:26Z</time>
      </trkpt>
      <trkpt lat="45.82192" lon="5.49662">
        <ele>579.913</ele>
        <time>2015-06-21T08:58:40Z</time>
      </trkpt>
      <trkpt lat="45.8221" lon="5.49665">
        <ele>581.508</ele>
        <time>2015-06-21T08:58:51Z</time>
      </trkpt>
      <trkpt lat="45.82217" lon="5.49664">
        <ele>582.14</ele>
        <time>2015-06-21T08:58:55Z</time>
      </trkpt>
      <trkpt lat="45.82248" lon="5.49662">
        <ele>584.584</ele>
        <time>2015-06-21T08:59:10Z</time>
      </trkpt>
      <trkpt lat="45.82292" lon="5.49655">
        <ele>587.308</ele>
        <time>2015-06-21T08:59:31Z</time>
      </trkpt>
      <trkpt lat="45.82322" lon="5.49648">
        <ele>590.331</ele>
        <time>2015-06-21T08:59:46Z</time>
      </trkpt>
      <trkpt lat="45.82341" lon="5.49646">
        <ele>591.288</ele>
        <time>2015-06-21T08:59:55Z</time>
      </trkpt>
      <trkpt lat="45.82349" lon="5.49647">
        <ele>591.201</ele>
        <time>2015-06-21T09:00:09Z</time>
      </trkpt>
      <trkpt lat="45.82351" lon="5.49647">
        <ele>590.44</ele>
        <time>2015-06-21T09:00:31Z</time>
      </trkpt>
      <trkpt lat="45.82357" lon="5.49647">
        <ele>591.594</ele>
        <time>2015-06-21T09:12:23Z</time>
      </trkpt>
      <trkpt lat="45.82366" lon="5.4965">
        <ele>591.594</ele>
        <time>2015-06-21T09:12:28Z</time>
      </trkpt>
      <trkpt lat="45.82372" lon="5.4965">
        <ele>591.745</ele>
        <time>2015-06-21T09:12:32Z</time>
      </trkpt>
      <trkpt lat="45.82391" lon="5.49658">
        <ele>591.623</ele>
        <time>2015-06-21T09:12:44Z</time>
      </trkpt>
      <trkpt lat="45.82405" lon="5.49658">
        <ele>591.948</ele>
        <time>2015-06-21T09:12:50Z</time>
      </trkpt>
      <trkpt lat="45.82448" lon="5.49664">
        <ele>591.998</ele>
        <time>2015-06-21T09:13:08Z</time>
      </trkpt>
      <trkpt lat="45.82475" lon="5.49668">
        <ele>591.399</ele>
        <time>2015-06-21T09:13:18Z</time>
      </trkpt>
      <trkpt lat="45.82531" lon="5.49673">
        <ele>591.058</ele>
        <time>2015-06-21T09:13:33Z</time>
      </trkpt>
      <trkpt lat="45.82589" lon="5.49662">
        <ele>592.03</ele>
        <time>2015-06-21T09:13:50Z</time>
      </trkpt>
      <trkpt lat="45.82651" lon="5.49673">
        <ele>590.831</ele>
        <time>2015-06-21T09:14:06Z</time>
      </trkpt>
      <trkpt lat="45.82664" lon="5.49676">
        <ele>590.675</ele>
        <time>2015-06-21T09:14:09Z</time>
      </trkpt>
      <trkpt lat="45.82695" lon="5.49684">
        <ele>590.432</ele>
        <time>2015-06-21T09:14:16Z</time>
      </trkpt>
      <trkpt lat="45.82731" lon="5.49694">
        <ele>589.882</ele>
        <time>2015-06-21T09:14:24Z</time>
      </trkpt>
      <trkpt lat="45.82795" lon="5.49703">
        <ele>593.042</ele>
        <time>2015-06-21T09:14:42Z</time>
      </trkpt>
      <trkpt lat="45.82863" lon="5.49704">
        <ele>593.732</ele>
        <time>2015-06-21T09:15:01Z</time>
      </trkpt>
      <trkpt lat="45.82931" lon="5.49722">
        <ele>594.614</ele>
        <time>2015-06-21T09:15:19Z</time>
      </trkpt>
      <trkpt lat="45.82953" lon="5.49759">
        <ele>593.819</ele>
        <time>2015-06-21T09:15:28Z</time>
      </trkpt>
      <trkpt lat="45.82963" lon="5.49785">
        <ele>592.501</ele>
        <time>2015-06-21T09:15:32Z</time>
      </trkpt>
      <trkpt lat="45.82972" lon="5.49798">
        <ele>591.113</ele>
        <time>2015-06-21T09:15:34Z</time>
      </trkpt>
      <trkpt lat="45.82995" lon="5.49818">
        <ele>589.237</ele>
        <time>2015-06-21T09:15:38Z</time>
      </trkpt>
      <trkpt lat="45.83015" lon="5.49815">
        <ele>588.651</ele>
        <time>2015-06-21T09:15:41Z</time>
      </trkpt>
      <trkpt lat="45.83027" lon="5.49812">
        <ele>588.455</ele>
        <time>2015-06-21T09:15:43Z</time>
      </trkpt>
      <trkpt lat="45.83054" lon="5.49825">
        <ele>585.953</ele>
        <time>2015-06-21T09:15:48Z</time>
      </trkpt>
      <trkpt lat="45.83061" lon="5.49839">
        <ele>584.833</ele>
        <time>2015-06-21T09:15:50Z</time>
      </trkpt>
      <trkpt lat="45.83079" lon="5.49884">
        <ele>582.486</ele>
        <time>2015-06-21T09:15:54Z</time>
      </trkpt>
      <trkpt lat="45.83095" lon="5.49918">
        <ele>581.146</ele>
        <time>2015-06-21T09:15:57Z</time>
      </trkpt>
      <trkpt lat="45.831" lon="5.4993">
        <ele>579.223</ele>
        <time>2015-06-21T09:15:58Z</time>
      </trkpt>
      <trkpt lat="45.83147" lon="5.50007">
        <ele>576.689</ele>
        <time>2015-06-21T09:16:06Z</time>
      </trkpt>
      <trkpt lat="45.83158" lon="5.50036">
        <ele>575.394</ele>
        <time>2015-06-21T09:16:09Z</time>
      </trkpt>
      <trkpt lat="45.83184" lon="5.50093">
        <ele>573.185</ele>
        <time>2015-06-21T09:16:16Z</time>
      </trkpt>
      <trkpt lat="45.83188" lon="5.50107">
        <ele>573.526</ele>
        <time>2015-06-21T09:16:18Z</time>
      </trkpt>
      <trkpt lat="45.83204" lon="5.50142">
        <ele>574.567</ele>
        <time>2015-06-21T09:16:26Z</time>
      </trkpt>
      <trkpt lat="45.83219" lon="5.50199">
        <ele>574.089</ele>
        <time>2015-06-21T09:16:37Z</time>
      </trkpt>
      <trkpt lat="45.83226" lon="5.50252">
        <ele>574.797</ele>
        <time>2015-06-21T09:16:48Z</time>
      </trkpt>
      <trkpt lat="45.83225" lon="5.50293">
        <ele>577.928</ele>
        <time>2015-06-21T09:16:58Z</time>
      </trkpt>
      <trkpt lat="45.83223" lon="5.50333">
        <ele>579.41</ele>
        <time>2015-06-21T09:17:10Z</time>
      </trkpt>
      <trkpt lat="45.83226" lon="5.5037">
        <ele>579.048</ele>
        <time>2015-06-21T09:17:19Z</time>
      </trkpt>
      <trkpt lat="45.8324" lon="5.50408">
        <ele>580.565</ele>
        <time>2015-06-21T09:17:32Z</time>
      </trkpt>
      <trkpt lat="45.83243" lon="5.50422">
        <ele>581.807</ele>
        <time>2015-06-21T09:17:45Z</time>
      </trkpt>
      <trkpt lat="45.83243" lon="5.50433">
        <ele>581.672</ele>
        <time>2015-06-21T09:18:01Z</time>
      </trkpt>
      <trkpt lat="45.83244" lon="5.50436">
        <ele>582.029</ele>
        <time>2015-06-21T09:18:04Z</time>
      </trkpt>
      <trkpt lat="45.83248" lon="5.5044">
        <ele>582.555</ele>
        <time>2015-06-21T09:18:20Z</time>
      </trkpt>
      <trkpt lat="45.8326" lon="5.50442">
        <ele>583.823</ele>
        <time>2015-06-21T09:18:32Z</time>
      </trkpt>
      <trkpt lat="45.83272" lon="5.50469">
        <ele>587.057</ele>
        <time>2015-06-21T09:18:45Z</time>
      </trkpt>
      <trkpt lat="45.83283" lon="5.50486">
        <ele>590.252</ele>
        <time>2015-06-21T09:18:56Z</time>
      </trkpt>
      <trkpt lat="45.833" lon="5.50524">
        <ele>593.005</ele>
        <time>2015-06-21T09:19:15Z</time>
      </trkpt>
      <trkpt lat="45.83311" lon="5.50547">
        <ele>595.46</ele>
        <time>2015-06-21T09:19:26Z</time>
      </trkpt>
      <trkpt lat="45.83324" lon="5.50557">
        <ele>596.844</ele>
        <time>2015-06-21T09:19:39Z</time>
      </trkpt>
      <trkpt lat="45.83331" lon="5.50571">
        <ele>597.487</ele>
        <time>2015-06-21T09:19:47Z</time>
      </trkpt>
      <trkpt lat="45.83347" lon="5.50603">
        <ele>597.743</ele>
        <time>2015-06-21T09:20:06Z</time>
      </trkpt>
      <trkpt lat="45.83356" lon="5.50608">
        <ele>595.077</ele>
        <time>2015-06-21T09:21:14Z</time>
      </trkpt>
      <trkpt lat="45.83392" lon="5.50639">
        <ele>595.156</ele>
        <time>2015-06-21T09:22:46Z</time>
      </trkpt>
      <trkpt lat="45.83371" lon="5.50611">
        <ele>597.225</ele>
        <time>2015-06-21T09:44:08Z</time>
      </trkpt>
      <trkpt lat="45.83364" lon="5.50607">
        <ele>598.742</ele>
        <time>2015-06-21T09:44:19Z</time>
      </trkpt>
      <trkpt lat="45.83351" lon="5.50613">
        <ele>597.352</ele>
        <time>2015-06-21T09:44:39Z</time>
      </trkpt>
      <trkpt lat="45.83345" lon="5.5061">
        <ele>597.228</ele>
        <time>2015-06-21T09:44:41Z</time>
      </trkpt>
      <trkpt lat="45.83333" lon="5.50596">
        <ele>597.262</ele>
        <time>2015-06-21T09:44:53Z</time>
      </trkpt>
      <trkpt lat="45.83322" lon="5.50582">
        <ele>596.49</ele>
        <time>2015-06-21T09:44:59Z</time>
      </trkpt>
      <trkpt lat="45.83311" lon="5.50574">
        <ele>594.279</ele>
        <time>2015-06-21T09:45:02Z</time>
      </trkpt>
      <trkpt lat="45.83294" lon="5.50566">
        <ele>592.273</ele>
        <time>2015-06-21T09:45:05Z</time>
      </trkpt>
      <trkpt lat="45.83285" lon="5.50562">
        <ele>590.92</ele>
        <time>2015-06-21T09:45:07Z</time>
      </trkpt>
      <trkpt lat="45.83279" lon="5.5055">
        <ele>590.085</ele>
        <time>2015-06-21T09:45:10Z</time>
      </trkpt>
      <trkpt lat="45.83273" lon="5.50536">
        <ele>588.188</ele>
        <time>2015-06-21T09:45:12Z</time>
      </trkpt>
      <trkpt lat="45.83258" lon="5.50507">
        <ele>585.163</ele>
        <time>2015-06-21T09:45:18Z</time>
      </trkpt>
      <trkpt lat="45.83233" lon="5.50479">
        <ele>583.451</ele>
        <time>2015-06-21T09:45:29Z</time>
      </trkpt>
      <trkpt lat="45.83239" lon="5.50459">
        <ele>583.052</ele>
        <time>2015-06-21T09:45:36Z</time>
      </trkpt>
      <trkpt lat="45.83241" lon="5.50424">
        <ele>582.798</ele>
        <time>2015-06-21T09:47:36Z</time>
      </trkpt>
      <trkpt lat="45.83243" lon="5.50421">
        <ele>583.16</ele>
        <time>2015-06-21T09:48:00Z</time>
      </trkpt>
      <trkpt lat="45.83237" lon="5.50419">
        <ele>582.481</ele>
        <time>2015-06-21T09:48:04Z</time>
      </trkpt>
      <trkpt lat="45.83219" lon="5.50388">
        <ele>580.37</ele>
        <time>2015-06-21T09:48:17Z</time>
      </trkpt>
      <trkpt lat="45.83218" lon="5.50385">
        <ele>580.441</ele>
        <time>2015-06-21T09:48:29Z</time>
      </trkpt>
      <trkpt lat="45.83218" lon="5.50378">
        <ele>580.613</ele>
        <time>2015-06-21T09:48:52Z</time>
      </trkpt>
      <trkpt lat="45.83219" lon="5.50371">
        <ele>581.194</ele>
        <time>2015-06-21T09:48:55Z</time>
      </trkpt>
      <trkpt lat="45.83219" lon="5.50364">
        <ele>580.919</ele>
        <time>2015-06-21T09:48:58Z</time>
      </trkpt>
      <trkpt lat="45.83219" lon="5.50347">
        <ele>580.777</ele>
        <time>2015-06-21T09:49:03Z</time>
      </trkpt>
      <trkpt lat="45.83216" lon="5.50321">
        <ele>579.717</ele>
        <time>2015-06-21T09:49:08Z</time>
      </trkpt>
      <trkpt lat="45.83212" lon="5.50308">
        <ele>576.187</ele>
        <time>2015-06-21T09:49:10Z</time>
      </trkpt>
      <trkpt lat="45.83211" lon="5.50296">
        <ele>574.829</ele>
        <time>2015-06-21T09:49:13Z</time>
      </trkpt>
      <trkpt lat="45.83204" lon="5.50259">
        <ele>573.616</ele>
        <time>2015-06-21T09:49:17Z</time>
      </trkpt>
      <trkpt lat="45.832" lon="5.50231">
        <ele>573.817</ele>
        <time>2015-06-21T09:49:20Z</time>
      </trkpt>
      <trkpt lat="45.83194" lon="5.50191">
        <ele>574.644</ele>
        <time>2015-06-21T09:49:24Z</time>
      </trkpt>
      <trkpt lat="45.83187" lon="5.50167">
        <ele>575.83</ele>
        <time>2015-06-21T09:49:28Z</time>
      </trkpt>
      <trkpt lat="45.8317" lon="5.50118">
        <ele>575.024</ele>
        <time>2015-06-21T09:49:38Z</time>
      </trkpt>
      <trkpt lat="45.83165" lon="5.50096">
        <ele>576.578</ele>
        <time>2015-06-21T09:49:42Z</time>
      </trkpt>
      <trkpt lat="45.83145" lon="5.50035">
        <ele>578.887</ele>
        <time>2015-06-21T09:49:55Z</time>
      </trkpt>
      <trkpt lat="45.83118" lon="5.49983">
        <ele>581.292</ele>
        <time>2015-06-21T09:50:04Z</time>
      </trkpt>
      <trkpt lat="45.8309" lon="5.49909">
        <ele>582.827</ele>
        <time>2015-06-21T09:50:14Z</time>
      </trkpt>
      <trkpt lat="45.83074" lon="5.4985">
        <ele>585.778</ele>
        <time>2015-06-21T09:50:29Z</time>
      </trkpt>
      <trkpt lat="45.83074" lon="5.49847">
        <ele>586.043</ele>
        <time>2015-06-21T09:50:30Z</time>
      </trkpt>
      <trkpt lat="45.8307" lon="5.49841">
        <ele>586.798</ele>
        <time>2015-06-21T09:50:33Z</time>
      </trkpt>
      <trkpt lat="45.83058" lon="5.49808">
        <ele>588.418</ele>
        <time>2015-06-21T09:50:44Z</time>
      </trkpt>
      <trkpt lat="45.83039" lon="5.49797">
        <ele>589.441</ele>
        <time>2015-06-21T09:50:53Z</time>
      </trkpt>
      <trkpt lat="45.83011" lon="5.49807">
        <ele>590.788</ele>
        <time>2015-06-21T09:51:02Z</time>
      </trkpt>
      <trkpt lat="45.82973" lon="5.49789">
        <ele>592.989</ele>
        <time>2015-06-21T09:51:18Z</time>
      </trkpt>
      <trkpt lat="45.82956" lon="5.49749">
        <ele>595.441</ele>
        <time>2015-06-21T09:51:32Z</time>
      </trkpt>
      <trkpt lat="45.82952" lon="5.49736">
        <ele>596.382</ele>
        <time>2015-06-21T09:51:37Z</time>
      </trkpt>
      <trkpt lat="45.82933" lon="5.49719">
        <ele>596.134</ele>
        <time>2015-06-21T09:51:47Z</time>
      </trkpt>
      <trkpt lat="45.82855" lon="5.49696">
        <ele>594.308</ele>
        <time>2015-06-21T09:52:03Z</time>
      </trkpt>
      <trkpt lat="45.82842" lon="5.49695">
        <ele>594.289</ele>
        <time>2015-06-21T09:52:05Z</time>
      </trkpt>
      <trkpt lat="45.82772" lon="5.49701">
        <ele>592.63</ele>
        <time>2015-06-21T09:52:16Z</time>
      </trkpt>
      <trkpt lat="45.82699" lon="5.49682">
        <ele>590.595</ele>
        <time>2015-06-21T09:52:26Z</time>
      </trkpt>
      <trkpt lat="45.82674" lon="5.49674">
        <ele>592.131</ele>
        <time>2015-06-21T09:52:30Z</time>
      </trkpt>
      <trkpt lat="45.82596" lon="5.49658">
        <ele>593.534</ele>
        <time>2015-06-21T09:52:44Z</time>
      </trkpt>
      <trkpt lat="45.82543" lon="5.49669">
        <ele>592.273</ele>
        <time>2015-06-21T09:52:53Z</time>
      </trkpt>
      <trkpt lat="45.82473" lon="5.49661">
        <ele>592.812</ele>
        <time>2015-06-21T09:53:06Z</time>
      </trkpt>
      <trkpt lat="45.82464" lon="5.49659">
        <ele>592.477</ele>
        <time>2015-06-21T09:53:08Z</time>
      </trkpt>
      <trkpt lat="45.82441" lon="5.49656">
        <ele>593.425</ele>
        <time>2015-06-21T09:53:13Z</time>
      </trkpt>
      <trkpt lat="45.82406" lon="5.49644">
        <ele>593.663</ele>
        <time>2015-06-21T09:53:21Z</time>
      </trkpt>
      <trkpt lat="45.82396" lon="5.49641">
        <ele>593.222</ele>
        <time>2015-06-21T09:53:23Z</time>
      </trkpt>
      <trkpt lat="45.82352" lon="5.49635">
        <ele>594.628</ele>
        <time>2015-06-21T09:53:35Z</time>
      </trkpt>
      <trkpt lat="45.82348" lon="5.49637">
        <ele>594.659</ele>
        <time>2015-06-21T09:53:55Z</time>
      </trkpt>
      <trkpt lat="45.82336" lon="5.49637">
        <ele>594.173</ele>
        <time>2015-06-21T09:56:40Z</time>
      </trkpt>
      <trkpt lat="45.82308" lon="5.49642">
        <ele>589.977</ele>
        <time>2015-06-21T09:56:46Z</time>
      </trkpt>
      <trkpt lat="45.82302" lon="5.49643">
        <ele>589.977</ele>
        <time>2015-06-21T09:56:47Z</time>
      </trkpt>
      <trkpt lat="45.82246" lon="5.49654">
        <ele>587.303</ele>
        <time>2015-06-21T09:56:56Z</time>
      </trkpt>
      <trkpt lat="45.82222" lon="5.49655">
        <ele>583.54</ele>
        <time>2015-06-21T09:57:00Z</time>
      </trkpt>
      <trkpt lat="45.82179" lon="5.49629">
        <ele>580.599</ele>
        <time>2015-06-21T09:57:09Z</time>
      </trkpt>
      <trkpt lat="45.82155" lon="5.49608">
        <ele>578.945</ele>
        <time>2015-06-21T09:57:14Z</time>
      </trkpt>
      <trkpt lat="45.82143" lon="5.49591">
        <ele>576.898</ele>
        <time>2015-06-21T09:57:17Z</time>
      </trkpt>
      <trkpt lat="45.82105" lon="5.49577">
        <ele>573.914</ele>
        <time>2015-06-21T09:57:23Z</time>
      </trkpt>
      <trkpt lat="45.82082" lon="5.49567">
        <ele>573.534</ele>
        <time>2015-06-21T09:57:27Z</time>
      </trkpt>
      <trkpt lat="45.82054" lon="5.49516">
        <ele>570.693</ele>
        <time>2015-06-21T09:57:33Z</time>
      </trkpt>
      <trkpt lat="45.82037" lon="5.49503">
        <ele>568.532</ele>
        <time>2015-06-21T09:57:36Z</time>
      </trkpt>
      <trkpt lat="45.82029" lon="5.49485">
        <ele>567.317</ele>
        <time>2015-06-21T09:57:38Z</time>
      </trkpt>
      <trkpt lat="45.82015" lon="5.49471">
        <ele>565.385</ele>
        <time>2015-06-21T09:57:40Z</time>
      </trkpt>
      <trkpt lat="45.82004" lon="5.49453">
        <ele>563.781</ele>
        <time>2015-06-21T09:57:42Z</time>
      </trkpt>
      <trkpt lat="45.81981" lon="5.49427">
        <ele>561.498</ele>
        <time>2015-06-21T09:57:45Z</time>
      </trkpt>
      <trkpt lat="45.81971" lon="5.49413">
        <ele>560.943</ele>
        <time>2015-06-21T09:57:47Z</time>
      </trkpt>
      <trkpt lat="45.81938" lon="5.49378">
        <ele>558.407</ele>
        <time>2015-06-21T09:57:52Z</time>
      </trkpt>
      <trkpt lat="45.81918" lon="5.49359">
        <ele>556.541</ele>
        <time>2015-06-21T09:57:55Z</time>
      </trkpt>
      <trkpt lat="45.81897" lon="5.49325">
        <ele>555.756</ele>
        <time>2015-06-21T09:58:02Z</time>
      </trkpt>
      <trkpt lat="45.81898" lon="5.49277">
        <ele>553.03</ele>
        <time>2015-06-21T09:58:08Z</time>
      </trkpt>
      <trkpt lat="45.81898" lon="5.49257">
        <ele>552.319</ele>
        <time>2015-06-21T09:58:10Z</time>
      </trkpt>
      <trkpt lat="45.81892" lon="5.49207">
        <ele>549.505</ele>
        <time>2015-06-21T09:58:15Z</time>
      </trkpt>
      <trkpt lat="45.81892" lon="5.49197">
        <ele>549.032</ele>
        <time>2015-06-21T09:58:16Z</time>
      </trkpt>
      <trkpt lat="45.81883" lon="5.49157">
        <ele>547.219</ele>
        <time>2015-06-21T09:58:20Z</time>
      </trkpt>
      <trkpt lat="45.81877" lon="5.49137">
        <ele>546.437</ele>
        <time>2015-06-21T09:58:22Z</time>
      </trkpt>
      <trkpt lat="45.8187" lon="5.49117">
        <ele>544.817</ele>
        <time>2015-06-21T09:58:24Z</time>
      </trkpt>
      <trkpt lat="45.81854" lon="5.49072">
        <ele>541.789</ele>
        <time>2015-06-21T09:58:28Z</time>
      </trkpt>
      <trkpt lat="45.81849" lon="5.49061">
        <ele>541.789</ele>
        <time>2015-06-21T09:58:29Z</time>
      </trkpt>
      <trkpt lat="45.81831" lon="5.49017">
        <ele>539.85</ele>
        <time>2015-06-21T09:58:34Z</time>
      </trkpt>
      <trkpt lat="45.81828" lon="5.48982">
        <ele>538.793</ele>
        <time>2015-06-21T09:58:39Z</time>
      </trkpt>
      <trkpt lat="45.81831" lon="5.48969">
        <ele>538.637</ele>
        <time>2015-06-21T09:58:41Z</time>
      </trkpt>
      <trkpt lat="45.81846" lon="5.48942">
        <ele>538.061</ele>
        <time>2015-06-21T09:58:46Z</time>
      </trkpt>
      <trkpt lat="45.8186" lon="5.48909">
        <ele>536.679</ele>
        <time>2015-06-21T09:58:51Z</time>
      </trkpt>
      <trkpt lat="45.81875" lon="5.48851">
        <ele>533.437</ele>
        <time>2015-06-21T09:59:04Z</time>
      </trkpt>
      <trkpt lat="45.81877" lon="5.48835">
        <ele>531.957</ele>
        <time>2015-06-21T09:59:06Z</time>
      </trkpt>
      <trkpt lat="45.81875" lon="5.48817">
        <ele>530.654</ele>
        <time>2015-06-21T09:59:08Z</time>
      </trkpt>
      <trkpt lat="45.81872" lon="5.48809">
        <ele>530.253</ele>
        <time>2015-06-21T09:59:09Z</time>
      </trkpt>
      <trkpt lat="45.81866" lon="5.48792">
        <ele>529.333</ele>
        <time>2015-06-21T09:59:11Z</time>
      </trkpt>
      <trkpt lat="45.81858" lon="5.48771">
        <ele>528.839</ele>
        <time>2015-06-21T09:59:14Z</time>
      </trkpt>
      <trkpt lat="45.81866" lon="5.48747">
        <ele>525.803</ele>
        <time>2015-06-21T09:59:18Z</time>
      </trkpt>
      <trkpt lat="45.8187" lon="5.48741">
        <ele>525.911</ele>
        <time>2015-06-21T09:59:19Z</time>
      </trkpt>
      <trkpt lat="45.81874" lon="5.48733">
        <ele>525.911</ele>
        <time>2015-06-21T09:59:20Z</time>
      </trkpt>
      <trkpt lat="45.81892" lon="5.48683">
        <ele>523.874</ele>
        <time>2015-06-21T09:59:26Z</time>
      </trkpt>
      <trkpt lat="45.81902" lon="5.48663">
        <ele>523.156</ele>
        <time>2015-06-21T09:59:29Z</time>
      </trkpt>
      <trkpt lat="45.81913" lon="5.48602">
        <ele>520.148</ele>
        <time>2015-06-21T09:59:36Z</time>
      </trkpt>
      <trkpt lat="45.81915" lon="5.4859">
        <ele>520.035</ele>
        <time>2015-06-21T09:59:38Z</time>
      </trkpt>
      <trkpt lat="45.81913" lon="5.48555">
        <ele>517.401</ele>
        <time>2015-06-21T09:59:43Z</time>
      </trkpt>
      <trkpt lat="45.81917" lon="5.48517">
        <ele>515.321</ele>
        <time>2015-06-21T09:59:49Z</time>
      </trkpt>
      <trkpt lat="45.81926" lon="5.48497">
        <ele>514.267</ele>
        <time>2015-06-21T09:59:54Z</time>
      </trkpt>
      <trkpt lat="45.81919" lon="5.4849">
        <ele>513.532</ele>
        <time>2015-06-21T10:00:03Z</time>
      </trkpt>
      <trkpt lat="45.81892" lon="5.48534">
        <ele>512.475</ele>
        <time>2015-06-21T10:03:31Z</time>
      </trkpt>
      <trkpt lat="45.81874" lon="5.48568">
        <ele>509.178</ele>
        <time>2015-06-21T10:03:36Z</time>
      </trkpt>
      <trkpt lat="45.81869" lon="5.48576">
        <ele>509.178</ele>
        <time>2015-06-21T10:03:37Z</time>
      </trkpt>
      <trkpt lat="45.81853" lon="5.48601">
        <ele>506.139</ele>
        <time>2015-06-21T10:03:40Z</time>
      </trkpt>
      <trkpt lat="45.81806" lon="5.48629">
        <ele>503.885</ele>
        <time>2015-06-21T10:03:46Z</time>
      </trkpt>
      <trkpt lat="45.81788" lon="5.48632">
        <ele>502.072</ele>
        <time>2015-06-21T10:03:48Z</time>
      </trkpt>
      <trkpt lat="45.81752" lon="5.48649">
        <ele>499.573</ele>
        <time>2015-06-21T10:03:52Z</time>
      </trkpt>
      <trkpt lat="45.81743" lon="5.48654">
        <ele>499.573</ele>
        <time>2015-06-21T10:03:53Z</time>
      </trkpt>
      <trkpt lat="45.81724" lon="5.4866">
        <ele>497.863</ele>
        <time>2015-06-21T10:03:55Z</time>
      </trkpt>
      <trkpt lat="45.817" lon="5.48638">
        <ele>495.311</ele>
        <time>2015-06-21T10:03:58Z</time>
      </trkpt>
      <trkpt lat="45.81673" lon="5.48601">
        <ele>494.013</ele>
        <time>2015-06-21T10:04:02Z</time>
      </trkpt>
      <trkpt lat="45.81656" lon="5.48614">
        <ele>495.591</ele>
        <time>2015-06-21T10:04:07Z</time>
      </trkpt>
      <trkpt lat="45.81659" lon="5.4862">
        <ele>494.888</ele>
        <time>2015-06-21T10:04:08Z</time>
      </trkpt>
      <trkpt lat="45.81672" lon="5.48639">
        <ele>494.182</ele>
        <time>2015-06-21T10:04:11Z</time>
      </trkpt>
      <trkpt lat="45.81685" lon="5.48664">
        <ele>491.86</ele>
        <time>2015-06-21T10:04:14Z</time>
      </trkpt>
      <trkpt lat="45.81691" lon="5.48684">
        <ele>489.997</ele>
        <time>2015-06-21T10:04:16Z</time>
      </trkpt>
      <trkpt lat="45.81686" lon="5.4872">
        <ele>486.551</ele>
        <time>2015-06-21T10:04:19Z</time>
      </trkpt>
      <trkpt lat="45.81672" lon="5.48735">
        <ele>484.977</ele>
        <time>2015-06-21T10:04:21Z</time>
      </trkpt>
      <trkpt lat="45.81642" lon="5.48784">
        <ele>482.9</ele>
        <time>2015-06-21T10:04:26Z</time>
      </trkpt>
      <trkpt lat="45.81634" lon="5.48811">
        <ele>481.042</ele>
        <time>2015-06-21T10:04:28Z</time>
      </trkpt>
      <trkpt lat="45.8163" lon="5.48824">
        <ele>479.489</ele>
        <time>2015-06-21T10:04:29Z</time>
      </trkpt>
      <trkpt lat="45.81634" lon="5.48875">
        <ele>477.383</ele>
        <time>2015-06-21T10:04:33Z</time>
      </trkpt>
      <trkpt lat="45.8165" lon="5.48913">
        <ele>473.786</ele>
        <time>2015-06-21T10:04:36Z</time>
      </trkpt>
      <trkpt lat="45.81663" lon="5.48955">
        <ele>471.818</ele>
        <time>2015-06-21T10:04:39Z</time>
      </trkpt>
      <trkpt lat="45.81671" lon="5.48984">
        <ele>469.947</ele>
        <time>2015-06-21T10:04:41Z</time>
      </trkpt>
      <trkpt lat="45.81674" lon="5.49014">
        <ele>468.319</ele>
        <time>2015-06-21T10:04:43Z</time>
      </trkpt>
      <trkpt lat="45.81695" lon="5.49044">
        <ele>467.152</ele>
        <time>2015-06-21T10:04:47Z</time>
      </trkpt>
      <trkpt lat="45.81718" lon="5.49084">
        <ele>463.931</ele>
        <time>2015-06-21T10:04:51Z</time>
      </trkpt>
      <trkpt lat="45.81722" lon="5.49096">
        <ele>462.76</ele>
        <time>2015-06-21T10:04:52Z</time>
      </trkpt>
      <trkpt lat="45.81749" lon="5.49159">
        <ele>458.857</ele>
        <time>2015-06-21T10:04:57Z</time>
      </trkpt>
      <trkpt lat="45.81753" lon="5.49171">
        <ele>458.857</ele>
        <time>2015-06-21T10:04:58Z</time>
      </trkpt>
      <trkpt lat="45.81759" lon="5.49193">
        <ele>458.115</ele>
        <time>2015-06-21T10:05:00Z</time>
      </trkpt>
      <trkpt lat="45.81757" lon="5.4921">
        <ele>457.996</ele>
        <time>2015-06-21T10:05:04Z</time>
      </trkpt>
      <trkpt lat="45.81754" lon="5.49171">
        <ele>459.589</ele>
        <time>2015-06-21T10:05:10Z</time>
      </trkpt>
      <trkpt lat="45.81746" lon="5.49159">
        <ele>461.439</ele>
        <time>2015-06-21T10:05:14Z</time>
      </trkpt>
      <trkpt lat="45.81718" lon="5.49132">
        <ele>463.672</ele>
        <time>2015-06-21T10:05:29Z</time>
      </trkpt>
      <trkpt lat="45.81675" lon="5.49127">
        <ele>465.936</ele>
        <time>2015-06-21T10:05:40Z</time>
      </trkpt>
      <trkpt lat="45.81647" lon="5.49134">
        <ele>467.92</ele>
        <time>2015-06-21T10:05:55Z</time>
      </trkpt>
      <trkpt lat="45.81631" lon="5.49126">
        <ele>469.728</ele>
        <time>2015-06-21T10:06:04Z</time>
      </trkpt>
      <trkpt lat="45.81622" lon="5.49115">
        <ele>470.497</ele>
        <time>2015-06-21T10:06:09Z</time>
      </trkpt>
      <trkpt lat="45.81611" lon="5.49103">
        <ele>471.987</ele>
        <time>2015-06-21T10:06:16Z</time>
      </trkpt>
      <trkpt lat="45.81603" lon="5.49093">
        <ele>472.64</ele>
        <time>2015-06-21T10:06:21Z</time>
      </trkpt>
      <trkpt lat="45.81587" lon="5.4906">
        <ele>475.562</ele>
        <time>2015-06-21T10:06:38Z</time>
      </trkpt>
      <trkpt lat="45.81585" lon="5.49047">
        <ele>476.733</ele>
        <time>2015-06-21T10:06:43Z</time>
      </trkpt>
      <trkpt lat="45.81573" lon="5.49028">
        <ele>478.323</ele>
        <time>2015-06-21T10:06:55Z</time>
      </trkpt>
      <trkpt lat="45.81569" lon="5.49018">
        <ele>478.817</ele>
        <time>2015-06-21T10:06:59Z</time>
      </trkpt>
      <trkpt lat="45.81551" lon="5.48984">
        <ele>480.717</ele>
        <time>2015-06-21T10:07:12Z</time>
      </trkpt>
      <trkpt lat="45.81546" lon="5.48977">
        <ele>480.765</ele>
        <time>2015-06-21T10:07:15Z</time>
      </trkpt>
      <trkpt lat="45.81522" lon="5.48957">
        <ele>483.058</ele>
        <time>2015-06-21T10:07:28Z</time>
      </trkpt>
      <trkpt lat="45.81504" lon="5.48946">
        <ele>484.345</ele>
        <time>2015-06-21T10:07:38Z</time>
      </trkpt>
      <trkpt lat="45.81495" lon="5.48935">
        <ele>485.357</ele>
        <time>2015-06-21T10:07:44Z</time>
      </trkpt>
      <trkpt lat="45.81477" lon="5.48923">
        <ele>486.842</ele>
        <time>2015-06-21T10:07:55Z</time>
      </trkpt>
      <trkpt lat="45.81464" lon="5.48915">
        <ele>487.41</ele>
        <time>2015-06-21T10:08:02Z</time>
      </trkpt>
      <trkpt lat="45.81462" lon="5.4891">
        <ele>487.616</ele>
        <time>2015-06-21T10:08:04Z</time>
      </trkpt>
      <trkpt lat="45.81457" lon="5.48901">
        <ele>488.523</ele>
        <time>2015-06-21T10:08:09Z</time>
      </trkpt>
      <trkpt lat="45.81456" lon="5.48889">
        <ele>489.194</ele>
        <time>2015-06-21T10:08:14Z</time>
      </trkpt>
      <trkpt lat="45.81452" lon="5.48875">
        <ele>490.124</ele>
        <time>2015-06-21T10:08:20Z</time>
      </trkpt>
      <trkpt lat="45.8145" lon="5.48867">
        <ele>490.573</ele>
        <time>2015-06-21T10:08:23Z</time>
      </trkpt>
      <trkpt lat="45.81437" lon="5.4886">
        <ele>492.092</ele>
        <time>2015-06-21T10:08:30Z</time>
      </trkpt>
      <trkpt lat="45.81415" lon="5.48871">
        <ele>493.226</ele>
        <time>2015-06-21T10:08:44Z</time>
      </trkpt>
      <trkpt lat="45.81388" lon="5.48875">
        <ele>495.48</ele>
        <time>2015-06-21T10:09:00Z</time>
      </trkpt>
      <trkpt lat="45.81385" lon="5.48874">
        <ele>495.765</ele>
        <time>2015-06-21T10:09:02Z</time>
      </trkpt>
      <trkpt lat="45.81368" lon="5.48871">
        <ele>497.697</ele>
        <time>2015-06-21T10:09:11Z</time>
      </trkpt>
      <trkpt lat="45.81347" lon="5.48867">
        <ele>498.624</ele>
        <time>2015-06-21T10:09:22Z</time>
      </trkpt>
      <trkpt lat="45.81318" lon="5.48868">
        <ele>500.846</ele>
        <time>2015-06-21T10:09:37Z</time>
      </trkpt>
      <trkpt lat="45.81283" lon="5.4887">
        <ele>503.095</ele>
        <time>2015-06-21T10:09:54Z</time>
      </trkpt>
      <trkpt lat="45.81244" lon="5.48869">
        <ele>506.258</ele>
        <time>2015-06-21T10:10:12Z</time>
      </trkpt>
      <trkpt lat="45.81221" lon="5.48901">
        <ele>507.809</ele>
        <time>2015-06-21T10:10:28Z</time>
      </trkpt>
      <trkpt lat="45.81208" lon="5.48918">
        <ele>508.469</ele>
        <time>2015-06-21T10:10:37Z</time>
      </trkpt>
      <trkpt lat="45.81191" lon="5.48916">
        <ele>508.818</ele>
        <time>2015-06-21T10:10:44Z</time>
      </trkpt>
      <trkpt lat="45.81168" lon="5.48873">
        <ele>511.585</ele>
        <time>2015-06-21T10:11:00Z</time>
      </trkpt>
      <trkpt lat="45.81147" lon="5.4883">
        <ele>513.744</ele>
        <time>2015-06-21T10:11:17Z</time>
      </trkpt>
      <trkpt lat="45.81115" lon="5.48798">
        <ele>515.659</ele>
        <time>2015-06-21T10:11:34Z</time>
      </trkpt>
      <trkpt lat="45.81073" lon="5.48772">
        <ele>517.926</ele>
        <time>2015-06-21T10:11:53Z</time>
      </trkpt>
      <trkpt lat="45.8106" lon="5.48757">
        <ele>518.912</ele>
        <time>2015-06-21T10:12:01Z</time>
      </trkpt>
      <trkpt lat="45.81049" lon="5.48742">
        <ele>520.178</ele>
        <time>2015-06-21T10:12:07Z</time>
      </trkpt>
      <trkpt lat="45.81042" lon="5.48731">
        <ele>521.338</ele>
        <time>2015-06-21T10:12:13Z</time>
      </trkpt>
      <trkpt lat="45.81032" lon="5.48726">
        <ele>521.567</ele>
        <time>2015-06-21T10:12:17Z</time>
      </trkpt>
      <trkpt lat="45.80993" lon="5.48735">
        <ele>523.837</ele>
        <time>2015-06-21T10:12:32Z</time>
      </trkpt>
      <trkpt lat="45.80953" lon="5.48749">
        <ele>524.965</ele>
        <time>2015-06-21T10:12:47Z</time>
      </trkpt>
      <trkpt lat="45.80922" lon="5.48761">
        <ele>526.329</ele>
        <time>2015-06-21T10:12:58Z</time>
      </trkpt>
      <trkpt lat="45.80896" lon="5.48759">
        <ele>528.533</ele>
        <time>2015-06-21T10:13:10Z</time>
      </trkpt>
      <trkpt lat="45.80894" lon="5.48751">
        <ele>528.945</ele>
        <time>2015-06-21T10:13:14Z</time>
      </trkpt>
      <trkpt lat="45.80901" lon="5.48748">
        <ele>529.608</ele>
        <time>2015-06-21T10:13:27Z</time>
      </trkpt>
      <trkpt lat="45.80903" lon="5.4875">
        <ele>529.645</ele>
        <time>2015-06-21T10:14:21Z</time>
      </trkpt>
      <trkpt lat="45.80916" lon="5.48735">
        <ele>529.22</ele>
        <time>2015-06-21T10:14:54Z</time>
      </trkpt>
      <trkpt lat="45.80944" lon="5.48711">
        <ele>529.901</ele>
        <time>2015-06-21T10:15:06Z</time>
      </trkpt>
      <trkpt lat="45.80976" lon="5.48694">
        <ele>529.156</ele>
        <time>2015-06-21T10:15:17Z</time>
      </trkpt>
      <trkpt lat="45.81019" lon="5.48662">
        <ele>526.498</ele>
        <time>2015-06-21T10:15:28Z</time>
      </trkpt>
      <trkpt lat="45.81038" lon="5.48651">
        <ele>525.946</ele>
        <time>2015-06-21T10:15:32Z</time>
      </trkpt>
      <trkpt lat="45.81058" lon="5.48647">
        <ele>526.088</ele>
        <time>2015-06-21T10:15:36Z</time>
      </trkpt>
      <trkpt lat="45.81067" lon="5.48648">
        <ele>525.729</ele>
        <time>2015-06-21T10:15:38Z</time>
      </trkpt>
      <trkpt lat="45.81095" lon="5.48644">
        <ele>521.258</ele>
        <time>2015-06-21T10:15:43Z</time>
      </trkpt>
      <trkpt lat="45.81102" lon="5.48643">
        <ele>521.258</ele>
        <time>2015-06-21T10:15:44Z</time>
      </trkpt>
      <trkpt lat="45.81143" lon="5.48637">
        <ele>518.825</ele>
        <time>2015-06-21T10:15:49Z</time>
      </trkpt>
      <trkpt lat="45.81162" lon="5.48652">
        <ele>519.961</ele>
        <time>2015-06-21T10:15:53Z</time>
      </trkpt>
      <trkpt lat="45.8119" lon="5.48678">
        <ele>522.101</ele>
        <time>2015-06-21T10:16:01Z</time>
      </trkpt>
      <trkpt lat="45.81226" lon="5.48677">
        <ele>520.965</ele>
        <time>2015-06-21T10:16:09Z</time>
      </trkpt>
      <trkpt lat="45.81233" lon="5.48664">
        <ele>521.684</ele>
        <time>2015-06-21T10:16:13Z</time>
      </trkpt>
      <trkpt lat="45.81232" lon="5.48649">
        <ele>521.346</ele>
        <time>2015-06-21T10:16:16Z</time>
      </trkpt>
      <trkpt lat="45.81234" lon="5.48609">
        <ele>518.756</ele>
        <time>2015-06-21T10:16:26Z</time>
      </trkpt>
      <trkpt lat="45.81235" lon="5.48598">
        <ele>517.319</ele>
        <time>2015-06-21T10:16:28Z</time>
      </trkpt>
      <trkpt lat="45.81233" lon="5.48582">
        <ele>515.229</ele>
        <time>2015-06-21T10:16:30Z</time>
      </trkpt>
      <trkpt lat="45.81226" lon="5.48534">
        <ele>511.4</ele>
        <time>2015-06-21T10:16:37Z</time>
      </trkpt>
      <trkpt lat="45.81232" lon="5.48489">
        <ele>506.881</ele>
        <time>2015-06-21T10:16:45Z</time>
      </trkpt>
      <trkpt lat="45.81235" lon="5.48476">
        <ele>505.275</ele>
        <time>2015-06-21T10:16:48Z</time>
      </trkpt>
      <trkpt lat="45.81253" lon="5.48465">
        <ele>505.867</ele>
        <time>2015-06-21T10:16:53Z</time>
      </trkpt>
      <trkpt lat="45.81271" lon="5.48449">
        <ele>505.103</ele>
        <time>2015-06-21T10:16:58Z</time>
      </trkpt>
      <trkpt lat="45.81296" lon="5.48444">
        <ele>503.28</ele>
        <time>2015-06-21T10:17:02Z</time>
      </trkpt>
      <trkpt lat="45.81307" lon="5.48427">
        <ele>501.993</ele>
        <time>2015-06-21T10:17:05Z</time>
      </trkpt>
      <trkpt lat="45.81317" lon="5.48416">
        <ele>500.413</ele>
        <time>2015-06-21T10:17:07Z</time>
      </trkpt>
      <trkpt lat="45.81324" lon="5.48405">
        <ele>498.445</ele>
        <time>2015-06-21T10:17:09Z</time>
      </trkpt>
      <trkpt lat="45.81332" lon="5.48395">
        <ele>494.888</ele>
        <time>2015-06-21T10:17:11Z</time>
      </trkpt>
      <trkpt lat="45.81336" lon="5.48391">
        <ele>494.888</ele>
        <time>2015-06-21T10:17:12Z</time>
      </trkpt>
      <trkpt lat="45.8136" lon="5.48364">
        <ele>494.206</ele>
        <time>2015-06-21T10:17:18Z</time>
      </trkpt>
      <trkpt lat="45.81363" lon="5.48362">
        <ele>494.206</ele>
        <time>2015-06-21T10:17:19Z</time>
      </trkpt>
      <trkpt lat="45.81405" lon="5.48317">
        <ele>495.422</ele>
        <time>2015-06-21T10:17:31Z</time>
      </trkpt>
      <trkpt lat="45.81412" lon="5.48302">
        <ele>495.464</ele>
        <time>2015-06-21T10:17:33Z</time>
      </trkpt>
      <trkpt lat="45.81432" lon="5.48246">
        <ele>495.282</ele>
        <time>2015-06-21T10:17:45Z</time>
      </trkpt>
      <trkpt lat="45.81432" lon="5.48241">
        <ele>495.282</ele>
        <time>2015-06-21T10:17:46Z</time>
      </trkpt>
      <trkpt lat="45.8144" lon="5.48223">
        <ele>494.439</ele>
        <time>2015-06-21T10:17:50Z</time>
      </trkpt>
      <trkpt lat="45.8144" lon="5.48182">
        <ele>496.045</ele>
        <time>2015-06-21T10:18:00Z</time>
      </trkpt>
      <trkpt lat="45.8145" lon="5.48156">
        <ele>498.923</ele>
        <time>2015-06-21T10:18:11Z</time>
      </trkpt>
      <trkpt lat="45.81453" lon="5.48151">
        <ele>499.562</ele>
        <time>2015-06-21T10:18:15Z</time>
      </trkpt>
      <trkpt lat="45.81456" lon="5.48132">
        <ele>501.388</ele>
        <time>2015-06-21T10:18:23Z</time>
      </trkpt>
      <trkpt lat="45.81455" lon="5.48129">
        <ele>501.618</ele>
        <time>2015-06-21T10:18:25Z</time>
      </trkpt>
      <trkpt lat="45.81455" lon="5.48104">
        <ele>504.514</ele>
        <time>2015-06-21T10:18:39Z</time>
      </trkpt>
      <trkpt lat="45.81468" lon="5.48079">
        <ele>507.169</ele>
        <time>2015-06-21T10:18:57Z</time>
      </trkpt>
      <trkpt lat="45.8147" lon="5.48076">
        <ele>506.781</ele>
        <time>2015-06-21T10:18:59Z</time>
      </trkpt>
      <trkpt lat="45.81482" lon="5.48058">
        <ele>508.567</ele>
        <time>2015-06-21T10:19:09Z</time>
      </trkpt>
      <trkpt lat="45.81489" lon="5.48043">
        <ele>510.161</ele>
        <time>2015-06-21T10:19:19Z</time>
      </trkpt>
      <trkpt lat="45.815" lon="5.48025">
        <ele>510.763</ele>
        <time>2015-06-21T10:19:26Z</time>
      </trkpt>
      <trkpt lat="45.81508" lon="5.48006">
        <ele>512.671</ele>
        <time>2015-06-21T10:19:35Z</time>
      </trkpt>
      <trkpt lat="45.81508" lon="5.48">
        <ele>513.963</ele>
        <time>2015-06-21T10:19:39Z</time>
      </trkpt>
      <trkpt lat="45.81508" lon="5.47993">
        <ele>514.956</ele>
        <time>2015-06-21T10:19:43Z</time>
      </trkpt>
      <trkpt lat="45.81514" lon="5.47982">
        <ele>517.459</ele>
        <time>2015-06-21T10:19:56Z</time>
      </trkpt>
      <trkpt lat="45.81516" lon="5.47974">
        <ele>517.934</ele>
        <time>2015-06-21T10:19:59Z</time>
      </trkpt>
      <trkpt lat="45.81515" lon="5.47965">
        <ele>517.831</ele>
        <time>2015-06-21T10:20:25Z</time>
      </trkpt>
      <trkpt lat="45.8152" lon="5.47962">
        <ele>518.333</ele>
        <time>2015-06-21T10:20:38Z</time>
      </trkpt>
      <trkpt lat="45.81568" lon="5.4795">
        <ele>518.333</ele>
        <time>2015-06-21T10:21:06Z</time>
      </trkpt>
      <trkpt lat="45.81571" lon="5.47941">
        <ele>517.831</ele>
        <time>2015-06-21T10:22:51Z</time>
      </trkpt>
      <trkpt lat="45.81572" lon="5.47931">
        <ele>517.612</ele>
        <time>2015-06-21T10:22:55Z</time>
      </trkpt>
      <trkpt lat="45.81573" lon="5.47927">
        <ele>518.008</ele>
        <time>2015-06-21T10:22:57Z</time>
      </trkpt>
      <trkpt lat="45.8158" lon="5.479">
        <ele>514.119</ele>
        <time>2015-06-21T10:23:07Z</time>
      </trkpt>
      <trkpt lat="45.81582" lon="5.47896">
        <ele>514.119</ele>
        <time>2015-06-21T10:23:08Z</time>
      </trkpt>
      <trkpt lat="45.81585" lon="5.47885">
        <ele>510.316</ele>
        <time>2015-06-21T10:23:10Z</time>
      </trkpt>
      <trkpt lat="45.81575" lon="5.47834">
        <ele>511.249</ele>
        <time>2015-06-21T10:23:18Z</time>
      </trkpt>
      <trkpt lat="45.81578" lon="5.47797">
        <ele>508.905</ele>
        <time>2015-06-21T10:23:24Z</time>
      </trkpt>
      <trkpt lat="45.81579" lon="5.47768">
        <ele>507.389</ele>
        <time>2015-06-21T10:23:28Z</time>
      </trkpt>
      <trkpt lat="45.81575" lon="5.47744">
        <ele>506.361</ele>
        <time>2015-06-21T10:23:31Z</time>
      </trkpt>
      <trkpt lat="45.81564" lon="5.47722">
        <ele>504.847</ele>
        <time>2015-06-21T10:23:34Z</time>
      </trkpt>
      <trkpt lat="45.8156" lon="5.47706">
        <ele>503.671</ele>
        <time>2015-06-21T10:23:36Z</time>
      </trkpt>
      <trkpt lat="45.81563" lon="5.47684">
        <ele>500.358</ele>
        <time>2015-06-21T10:23:41Z</time>
      </trkpt>
      <trkpt lat="45.8156" lon="5.47672">
        <ele>498.799</ele>
        <time>2015-06-21T10:23:43Z</time>
      </trkpt>
      <trkpt lat="45.81557" lon="5.47649">
        <ele>496.79</ele>
        <time>2015-06-21T10:23:45Z</time>
      </trkpt>
      <trkpt lat="45.81557" lon="5.47634">
        <ele>493.783</ele>
        <time>2015-06-21T10:23:47Z</time>
      </trkpt>
      <trkpt lat="45.81553" lon="5.47606">
        <ele>492.032</ele>
        <time>2015-06-21T10:23:50Z</time>
      </trkpt>
      <trkpt lat="45.81553" lon="5.47601">
        <ele>491.604</ele>
        <time>2015-06-21T10:23:51Z</time>
      </trkpt>
      <trkpt lat="45.81544" lon="5.47589">
        <ele>487.764</ele>
        <time>2015-06-21T10:23:54Z</time>
      </trkpt>
      <trkpt lat="45.81542" lon="5.47582">
        <ele>487.764</ele>
        <time>2015-06-21T10:23:55Z</time>
      </trkpt>
      <trkpt lat="45.81547" lon="5.47568">
        <ele>486.242</ele>
        <time>2015-06-21T10:23:57Z</time>
      </trkpt>
      <trkpt lat="45.81545" lon="5.47562">
        <ele>485.357</ele>
        <time>2015-06-21T10:23:58Z</time>
      </trkpt>
      <trkpt lat="45.8153" lon="5.47534">
        <ele>486.868</ele>
        <time>2015-06-21T10:24:04Z</time>
      </trkpt>
      <trkpt lat="45.81506" lon="5.47504">
        <ele>487.23</ele>
        <time>2015-06-21T10:24:11Z</time>
      </trkpt>
      <trkpt lat="45.81466" lon="5.47474">
        <ele>488.919</ele>
        <time>2015-06-21T10:24:23Z</time>
      </trkpt>
      <trkpt lat="45.81437" lon="5.47447">
        <ele>490.449</ele>
        <time>2015-06-21T10:24:34Z</time>
      </trkpt>
      <trkpt lat="45.81398" lon="5.47414">
        <ele>489.849</ele>
        <time>2015-06-21T10:24:48Z</time>
      </trkpt>
      <trkpt lat="45.81352" lon="5.47386">
        <ele>489.085</ele>
        <time>2015-06-21T10:25:00Z</time>
      </trkpt>
      <trkpt lat="45.81329" lon="5.47365">
        <ele>487.74</ele>
        <time>2015-06-21T10:25:08Z</time>
      </trkpt>
      <trkpt lat="45.81315" lon="5.47352">
        <ele>487.439</ele>
        <time>2015-06-21T10:25:11Z</time>
      </trkpt>
      <trkpt lat="45.81289" lon="5.47329">
        <ele>486.337</ele>
        <time>2015-06-21T10:25:17Z</time>
      </trkpt>
      <trkpt lat="45.81278" lon="5.47312">
        <ele>488.745</ele>
        <time>2015-06-21T10:25:23Z</time>
      </trkpt>
      <trkpt lat="45.81261" lon="5.47301">
        <ele>490.306</ele>
        <time>2015-06-21T10:25:31Z</time>
      </trkpt>
      <trkpt lat="45.81236" lon="5.47293">
        <ele>493.606</ele>
        <time>2015-06-21T10:25:44Z</time>
      </trkpt>
      <trkpt lat="45.81219" lon="5.47288">
        <ele>494.56</ele>
        <time>2015-06-21T10:25:53Z</time>
      </trkpt>
      <trkpt lat="45.81212" lon="5.47283">
        <ele>495.113</ele>
        <time>2015-06-21T10:25:58Z</time>
      </trkpt>
      <trkpt lat="45.81194" lon="5.47253">
        <ele>497.208</ele>
        <time>2015-06-21T10:26:12Z</time>
      </trkpt>
      <trkpt lat="45.81188" lon="5.4724">
        <ele>498.344</ele>
        <time>2015-06-21T10:26:18Z</time>
      </trkpt>
      <trkpt lat="45.81166" lon="5.47202">
        <ele>497.863</ele>
        <time>2015-06-21T10:26:33Z</time>
      </trkpt>
      <trkpt lat="45.81146" lon="5.47184">
        <ele>497.657</ele>
        <time>2015-06-21T10:26:41Z</time>
      </trkpt>
      <trkpt lat="45.81127" lon="5.47157">
        <ele>498.114</ele>
        <time>2015-06-21T10:26:50Z</time>
      </trkpt>
      <trkpt lat="45.81122" lon="5.47151">
        <ele>498.55</ele>
        <time>2015-06-21T10:26:53Z</time>
      </trkpt>
      <trkpt lat="45.81096" lon="5.47133">
        <ele>501.457</ele>
        <time>2015-06-21T10:27:06Z</time>
      </trkpt>
      <trkpt lat="45.81069" lon="5.47112">
        <ele>501.576</ele>
        <time>2015-06-21T10:27:18Z</time>
      </trkpt>
      <trkpt lat="45.81037" lon="5.47093">
        <ele>502.384</ele>
        <time>2015-06-21T10:27:31Z</time>
      </trkpt>
      <trkpt lat="45.81011" lon="5.47084">
        <ele>504.044</ele>
        <time>2015-06-21T10:27:42Z</time>
      </trkpt>
      <trkpt lat="45.81005" lon="5.47079">
        <ele>503.552</ele>
        <time>2015-06-21T10:27:51Z</time>
      </trkpt>
      <trkpt lat="45.80996" lon="5.4708">
        <ele>503.367</ele>
        <time>2015-06-21T10:29:42Z</time>
      </trkpt>
      <trkpt lat="45.80976" lon="5.47074">
        <ele>501.087</ele>
        <time>2015-06-21T10:29:50Z</time>
      </trkpt>
      <trkpt lat="45.80957" lon="5.47064">
        <ele>499.792</ele>
        <time>2015-06-21T10:29:53Z</time>
      </trkpt>
      <trkpt lat="45.80946" lon="5.47057">
        <ele>495.498</ele>
        <time>2015-06-21T10:29:55Z</time>
      </trkpt>
      <trkpt lat="45.80937" lon="5.47051">
        <ele>495.498</ele>
        <time>2015-06-21T10:29:56Z</time>
      </trkpt>
      <trkpt lat="45.8092" lon="5.47041">
        <ele>493.776</ele>
        <time>2015-06-21T10:29:58Z</time>
      </trkpt>
      <trkpt lat="45.80886" lon="5.47012">
        <ele>493.297</ele>
        <time>2015-06-21T10:30:03Z</time>
      </trkpt>
      <trkpt lat="45.80866" lon="5.46978">
        <ele>493.662</ele>
        <time>2015-06-21T10:30:08Z</time>
      </trkpt>
      <trkpt lat="45.80841" lon="5.46936">
        <ele>495.699</ele>
        <time>2015-06-21T10:30:17Z</time>
      </trkpt>
      <trkpt lat="45.80818" lon="5.46895">
        <ele>496.711</ele>
        <time>2015-06-21T10:30:28Z</time>
      </trkpt>
      <trkpt lat="45.80819" lon="5.46878">
        <ele>496.331</ele>
        <time>2015-06-21T10:30:31Z</time>
      </trkpt>
      <trkpt lat="45.80819" lon="5.46861">
        <ele>496.291</ele>
        <time>2015-06-21T10:30:34Z</time>
      </trkpt>
      <trkpt lat="45.80823" lon="5.46838">
        <ele>495.916</ele>
        <time>2015-06-21T10:30:38Z</time>
      </trkpt>
      <trkpt lat="45.80811" lon="5.46815">
        <ele>496.188</ele>
        <time>2015-06-21T10:30:43Z</time>
      </trkpt>
      <trkpt lat="45.80746" lon="5.46775">
        <ele>494.418</ele>
        <time>2015-06-21T10:30:57Z</time>
      </trkpt>
      <trkpt lat="45.80673" lon="5.4672">
        <ele>492.869</ele>
        <time>2015-06-21T10:31:13Z</time>
      </trkpt>
      <trkpt lat="45.80615" lon="5.46683">
        <ele>490.528</ele>
        <time>2015-06-21T10:31:24Z</time>
      </trkpt>
      <trkpt lat="45.80608" lon="5.46681">
        <ele>489.622</ele>
        <time>2015-06-21T10:31:25Z</time>
      </trkpt>
      <trkpt lat="45.80585" lon="5.46671">
        <ele>490.264</ele>
        <time>2015-06-21T10:31:29Z</time>
      </trkpt>
      <trkpt lat="45.80562" lon="5.46646">
        <ele>487.859</ele>
        <time>2015-06-21T10:31:33Z</time>
      </trkpt>
      <trkpt lat="45.80557" lon="5.46638">
        <ele>487.312</ele>
        <time>2015-06-21T10:31:34Z</time>
      </trkpt>
      <trkpt lat="45.80542" lon="5.46609">
        <ele>484.279</ele>
        <time>2015-06-21T10:31:37Z</time>
      </trkpt>
      <trkpt lat="45.80538" lon="5.46599">
        <ele>484.279</ele>
        <time>2015-06-21T10:31:38Z</time>
      </trkpt>
      <trkpt lat="45.80522" lon="5.46562">
        <ele>482.157</ele>
        <time>2015-06-21T10:31:42Z</time>
      </trkpt>
      <trkpt lat="45.80514" lon="5.46544">
        <ele>479.845</ele>
        <time>2015-06-21T10:31:44Z</time>
      </trkpt>
      <trkpt lat="45.80504" lon="5.46512">
        <ele>477.723</ele>
        <time>2015-06-21T10:31:47Z</time>
      </trkpt>
      <trkpt lat="45.80499" lon="5.46487">
        <ele>475.414</ele>
        <time>2015-06-21T10:31:49Z</time>
      </trkpt>
      <trkpt lat="45.80492" lon="5.46455">
        <ele>473.173</ele>
        <time>2015-06-21T10:31:52Z</time>
      </trkpt>
      <trkpt lat="45.80487" lon="5.46426">
        <ele>472.753</ele>
        <time>2015-06-21T10:31:57Z</time>
      </trkpt>
      <trkpt lat="45.80486" lon="5.46423">
        <ele>472.64</ele>
        <time>2015-06-21T10:31:59Z</time>
      </trkpt>
      <trkpt lat="45.80482" lon="5.46422">
        <ele>471.543</ele>
        <time>2015-06-21T10:32:02Z</time>
      </trkpt>
      <trkpt lat="45.80457" lon="5.46402">
        <ele>468.275</ele>
        <time>2015-06-21T10:32:11Z</time>
      </trkpt>
      <trkpt lat="45.80442" lon="5.46391">
        <ele>464.377</ele>
        <time>2015-06-21T10:32:16Z</time>
      </trkpt>
      <trkpt lat="45.80439" lon="5.46389">
        <ele>464.377</ele>
        <time>2015-06-21T10:32:17Z</time>
      </trkpt>
      <trkpt lat="45.80417" lon="5.46376">
        <ele>462.604</ele>
        <time>2015-06-21T10:32:26Z</time>
      </trkpt>
      <trkpt lat="45.80407" lon="5.46369">
        <ele>460.646</ele>
        <time>2015-06-21T10:32:29Z</time>
      </trkpt>
      <trkpt lat="45.80384" lon="5.46358">
        <ele>457.256</ele>
        <time>2015-06-21T10:32:35Z</time>
      </trkpt>
      <trkpt lat="45.80381" lon="5.46357">
        <ele>457.256</ele>
        <time>2015-06-21T10:32:36Z</time>
      </trkpt>
      <trkpt lat="45.80366" lon="5.4635">
        <ele>455.066</ele>
        <time>2015-06-21T10:32:40Z</time>
      </trkpt>
      <trkpt lat="45.80359" lon="5.46347">
        <ele>454.257</ele>
        <time>2015-06-21T10:32:42Z</time>
      </trkpt>
      <trkpt lat="45.8033" lon="5.46323">
        <ele>450.368</ele>
        <time>2015-06-21T10:32:53Z</time>
      </trkpt>
      <trkpt lat="45.80328" lon="5.46324">
        <ele>450.679</ele>
        <time>2015-06-21T10:33:08Z</time>
      </trkpt>
      <trkpt lat="45.80329" lon="5.46331">
        <ele>450.983</ele>
        <time>2015-06-21T10:33:51Z</time>
      </trkpt>
      <trkpt lat="45.8033" lon="5.46335">
        <ele>451.073</ele>
        <time>2015-06-21T10:33:54Z</time>
      </trkpt>
      <trkpt lat="45.80332" lon="5.46336">
        <ele>450.317</ele>
        <time>2015-06-21T10:34:17Z</time>
      </trkpt>
      <trkpt lat="45.80318" lon="5.46348">
        <ele>450.087</ele>
        <time>2015-06-21T10:35:09Z</time>
      </trkpt>
      <trkpt lat="45.80315" lon="5.46396">
        <ele>448.737</ele>
        <time>2015-06-21T10:35:22Z</time>
      </trkpt>
      <trkpt lat="45.80317" lon="5.46415">
        <ele>447.482</ele>
        <time>2015-06-21T10:35:25Z</time>
      </trkpt>
      <trkpt lat="45.80304" lon="5.46449">
        <ele>445.001</ele>
        <time>2015-06-21T10:35:31Z</time>
      </trkpt>
      <trkpt lat="45.80275" lon="5.46459">
        <ele>442.086</ele>
        <time>2015-06-21T10:35:36Z</time>
      </trkpt>
      <trkpt lat="45.8025" lon="5.46468">
        <ele>438.918</ele>
        <time>2015-06-21T10:35:40Z</time>
      </trkpt>
      <trkpt lat="45.80244" lon="5.4647">
        <ele>438.918</ele>
        <time>2015-06-21T10:35:41Z</time>
      </trkpt>
      <trkpt lat="45.80238" lon="5.46473">
        <ele>438.337</ele>
        <time>2015-06-21T10:35:42Z</time>
      </trkpt>
      <trkpt lat="45.80207" lon="5.46499">
        <ele>434.907</ele>
        <time>2015-06-21T10:35:47Z</time>
      </trkpt>
      <trkpt lat="45.80179" lon="5.4652">
        <ele>433.879</ele>
        <time>2015-06-21T10:35:51Z</time>
      </trkpt>
      <trkpt lat="45.80154" lon="5.46553">
        <ele>431.385</ele>
        <time>2015-06-21T10:35:55Z</time>
      </trkpt>
      <trkpt lat="45.80143" lon="5.46574">
        <ele>429.221</ele>
        <time>2015-06-21T10:35:57Z</time>
      </trkpt>
      <trkpt lat="45.80134" lon="5.46598">
        <ele>428.632</ele>
        <time>2015-06-21T10:35:59Z</time>
      </trkpt>
      <trkpt lat="45.80118" lon="5.46629">
        <ele>426.558</ele>
        <time>2015-06-21T10:36:02Z</time>
      </trkpt>
      <trkpt lat="45.80095" lon="5.46661">
        <ele>426.478</ele>
        <time>2015-06-21T10:36:06Z</time>
      </trkpt>
      <trkpt lat="45.80079" lon="5.46682">
        <ele>428.124</ele>
        <time>2015-06-21T10:36:09Z</time>
      </trkpt>
      <trkpt lat="45.8007" lon="5.46693">
        <ele>428.28</ele>
        <time>2015-06-21T10:36:11Z</time>
      </trkpt>
      <trkpt lat="45.80027" lon="5.4672">
        <ele>428.235</ele>
        <time>2015-06-21T10:36:18Z</time>
      </trkpt>
      <trkpt lat="45.79983" lon="5.46748">
        <ele>429.24</ele>
        <time>2015-06-21T10:36:27Z</time>
      </trkpt>
      <trkpt lat="45.7996" lon="5.46767">
        <ele>432.645</ele>
        <time>2015-06-21T10:36:38Z</time>
      </trkpt>
      <trkpt lat="45.79932" lon="5.46801">
        <ele>435.135</ele>
        <time>2015-06-21T10:36:54Z</time>
      </trkpt>
      <trkpt lat="45.79896" lon="5.46827">
        <ele>437.597</ele>
        <time>2015-06-21T10:37:11Z</time>
      </trkpt>
      <trkpt lat="45.79853" lon="5.46861">
        <ele>438.57</ele>
        <time>2015-06-21T10:37:28Z</time>
      </trkpt>
      <trkpt lat="45.79805" lon="5.469">
        <ele>436.046</ele>
        <time>2015-06-21T10:37:41Z</time>
      </trkpt>
      <trkpt lat="45.79791" lon="5.46909">
        <ele>434.648</ele>
        <time>2015-06-21T10:37:43Z</time>
      </trkpt>
      <trkpt lat="45.79776" lon="5.46917">
        <ele>431.961</ele>
        <time>2015-06-21T10:37:45Z</time>
      </trkpt>
      <trkpt lat="45.79749" lon="5.46926">
        <ele>430.082</ele>
        <time>2015-06-21T10:37:48Z</time>
      </trkpt>
      <trkpt lat="45.79731" lon="5.4693">
        <ele>428.346</ele>
        <time>2015-06-21T10:37:50Z</time>
      </trkpt>
      <trkpt lat="45.79723" lon="5.46932">
        <ele>427.585</ele>
        <time>2015-06-21T10:37:51Z</time>
      </trkpt>
      <trkpt lat="45.79691" lon="5.46975">
        <ele>427.749</ele>
        <time>2015-06-21T10:37:58Z</time>
      </trkpt>
      <trkpt lat="45.7969" lon="5.46981">
        <ele>429.321</ele>
        <time>2015-06-21T10:37:59Z</time>
      </trkpt>
      <trkpt lat="45.79684" lon="5.46995">
        <ele>429.678</ele>
        <time>2015-06-21T10:38:02Z</time>
      </trkpt>
      <trkpt lat="45.79665" lon="5.47014">
        <ele>428.587</ele>
        <time>2015-06-21T10:38:07Z</time>
      </trkpt>
      <trkpt lat="45.79653" lon="5.47021">
        <ele>427.25</ele>
        <time>2015-06-21T10:38:09Z</time>
      </trkpt>
      <trkpt lat="45.79604" lon="5.4705">
        <ele>424.555</ele>
        <time>2015-06-21T10:38:18Z</time>
      </trkpt>
      <trkpt lat="45.79591" lon="5.4706">
        <ele>423.286</ele>
        <time>2015-06-21T10:38:21Z</time>
      </trkpt>
      <trkpt lat="45.79578" lon="5.47081">
        <ele>420.443</ele>
        <time>2015-06-21T10:38:24Z</time>
      </trkpt>
      <trkpt lat="45.79566" lon="5.47097">
        <ele>418.002</ele>
        <time>2015-06-21T10:38:26Z</time>
      </trkpt>
      <trkpt lat="45.79538" lon="5.47123">
        <ele>415.703</ele>
        <time>2015-06-21T10:38:30Z</time>
      </trkpt>
      <trkpt lat="45.79521" lon="5.47134">
        <ele>414.199</ele>
        <time>2015-06-21T10:38:32Z</time>
      </trkpt>
      <trkpt lat="45.79503" lon="5.47142">
        <ele>412.16</ele>
        <time>2015-06-21T10:38:34Z</time>
      </trkpt>
      <trkpt lat="45.79484" lon="5.4715">
        <ele>407.834</ele>
        <time>2015-06-21T10:38:36Z</time>
      </trkpt>
      <trkpt lat="45.79457" lon="5.47172">
        <ele>406.169</ele>
        <time>2015-06-21T10:38:39Z</time>
      </trkpt>
      <trkpt lat="45.79441" lon="5.47188">
        <ele>404.396</ele>
        <time>2015-06-21T10:38:41Z</time>
      </trkpt>
      <trkpt lat="45.79423" lon="5.47243">
        <ele>404.629</ele>
        <time>2015-06-21T10:38:48Z</time>
      </trkpt>
      <trkpt lat="45.79408" lon="5.47263">
        <ele>402.631</ele>
        <time>2015-06-21T10:38:51Z</time>
      </trkpt>
      <trkpt lat="45.79397" lon="5.47274">
        <ele>402.444</ele>
        <time>2015-06-21T10:38:53Z</time>
      </trkpt>
      <trkpt lat="45.79383" lon="5.47282">
        <ele>401.157</ele>
        <time>2015-06-21T10:38:55Z</time>
      </trkpt>
      <trkpt lat="45.79361" lon="5.4729">
        <ele>398.927</ele>
        <time>2015-06-21T10:38:58Z</time>
      </trkpt>
      <trkpt lat="45.79319" lon="5.47306">
        <ele>396.932</ele>
        <time>2015-06-21T10:39:05Z</time>
      </trkpt>
      <trkpt lat="45.79292" lon="5.4732">
        <ele>394.744</ele>
        <time>2015-06-21T10:39:09Z</time>
      </trkpt>
      <trkpt lat="45.79265" lon="5.47344">
        <ele>392.115</ele>
        <time>2015-06-21T10:39:13Z</time>
      </trkpt>
      <trkpt lat="45.79241" lon="5.47355">
        <ele>390.688</ele>
        <time>2015-06-21T10:39:16Z</time>
      </trkpt>
      <trkpt lat="45.79207" lon="5.47362">
        <ele>387.301</ele>
        <time>2015-06-21T10:39:20Z</time>
      </trkpt>
      <trkpt lat="45.79178" lon="5.47378">
        <ele>388.535</ele>
        <time>2015-06-21T10:39:24Z</time>
      </trkpt>
      <trkpt lat="45.79156" lon="5.47391">
        <ele>386.125</ele>
        <time>2015-06-21T10:39:28Z</time>
      </trkpt>
      <trkpt lat="45.79109" lon="5.47425">
        <ele>383.097</ele>
        <time>2015-06-21T10:39:36Z</time>
      </trkpt>
      <trkpt lat="45.79048" lon="5.47469">
        <ele>380.941</ele>
        <time>2015-06-21T10:39:46Z</time>
      </trkpt>
      <trkpt lat="45.79031" lon="5.4749">
        <ele>381.474</ele>
        <time>2015-06-21T10:39:50Z</time>
      </trkpt>
      <trkpt lat="45.78968" lon="5.47585">
        <ele>382.682</ele>
        <time>2015-06-21T10:40:08Z</time>
      </trkpt>
      <trkpt lat="45.78942" lon="5.47626">
        <ele>384.061</ele>
        <time>2015-06-21T10:40:19Z</time>
      </trkpt>
      <trkpt lat="45.78933" lon="5.47634">
        <ele>382.785</ele>
        <time>2015-06-21T10:40:21Z</time>
      </trkpt>
      <trkpt lat="45.78922" lon="5.47642">
        <ele>381.287</ele>
        <time>2015-06-21T10:40:23Z</time>
      </trkpt>
      <trkpt lat="45.78896" lon="5.47652">
        <ele>378.663</ele>
        <time>2015-06-21T10:40:32Z</time>
      </trkpt>
      <trkpt lat="45.78877" lon="5.47657">
        <ele>377.799</ele>
        <time>2015-06-21T10:41:30Z</time>
      </trkpt>
      <trkpt lat="45.7885" lon="5.47686">
        <ele>380.145</ele>
        <time>2015-06-21T10:41:44Z</time>
      </trkpt>
      <trkpt lat="45.78819" lon="5.47737">
        <ele>383.778</ele>
        <time>2015-06-21T10:42:00Z</time>
      </trkpt>
      <trkpt lat="45.78818" lon="5.47739">
        <ele>383.778</ele>
        <time>2015-06-21T10:42:01Z</time>
      </trkpt>
      <trkpt lat="45.78784" lon="5.47793">
        <ele>386.598</ele>
        <time>2015-06-21T10:42:21Z</time>
      </trkpt>
      <trkpt lat="45.78753" lon="5.47842">
        <ele>390.281</ele>
        <time>2015-06-21T10:42:39Z</time>
      </trkpt>
      <trkpt lat="45.78738" lon="5.47891">
        <ele>391.991</ele>
        <time>2015-06-21T10:42:55Z</time>
      </trkpt>
      <trkpt lat="45.78729" lon="5.47938">
        <ele>393.455</ele>
        <time>2015-06-21T10:43:08Z</time>
      </trkpt>
      <trkpt lat="45.7869" lon="5.47986">
        <ele>396.388</ele>
        <time>2015-06-21T10:43:29Z</time>
      </trkpt>
      <trkpt lat="45.78656" lon="5.48037">
        <ele>399.553</ele>
        <time>2015-06-21T10:43:50Z</time>
      </trkpt>
      <trkpt lat="45.78641" lon="5.48092">
        <ele>400.446</ele>
        <time>2015-06-21T10:44:06Z</time>
      </trkpt>
      <trkpt lat="45.78614" lon="5.48133">
        <ele>402.446</ele>
        <time>2015-06-21T10:44:21Z</time>
      </trkpt>
      <trkpt lat="45.78574" lon="5.48178">
        <ele>405.506</ele>
        <time>2015-06-21T10:44:41Z</time>
      </trkpt>
      <trkpt lat="45.78562" lon="5.48229">
        <ele>407.205</ele>
        <time>2015-06-21T10:44:57Z</time>
      </trkpt>
      <trkpt lat="45.78569" lon="5.48261">
        <ele>408.799</ele>
        <time>2015-06-21T10:45:08Z</time>
      </trkpt>
      <trkpt lat="45.78565" lon="5.48263">
        <ele>408.873</ele>
        <time>2015-06-21T10:45:21Z</time>
      </trkpt>
      <trkpt lat="45.78561" lon="5.48245">
        <ele>406.283</ele>
        <time>2015-06-21T10:46:04Z</time>
      </trkpt>
      <trkpt lat="45.78558" lon="5.48235">
        <ele>404.938</ele>
        <time>2015-06-21T10:46:06Z</time>
      </trkpt>
      <trkpt lat="45.78555" lon="5.48224">
        <ele>403.207</ele>
        <time>2015-06-21T10:46:08Z</time>
      </trkpt>
      <trkpt lat="45.78552" lon="5.48212">
        <ele>399.794</ele>
        <time>2015-06-21T10:46:10Z</time>
      </trkpt>
      <trkpt lat="45.7855" lon="5.4819">
        <ele>397.96</ele>
        <time>2015-06-21T10:46:13Z</time>
      </trkpt>
      <trkpt lat="45.78551" lon="5.48173">
        <ele>396.514</ele>
        <time>2015-06-21T10:46:16Z</time>
      </trkpt>
      <trkpt lat="45.7856" lon="5.48139">
        <ele>394.105</ele>
        <time>2015-06-21T10:46:24Z</time>
      </trkpt>
      <trkpt lat="45.78554" lon="5.48129">
        <ele>391.732</ele>
        <time>2015-06-21T10:46:27Z</time>
      </trkpt>
      <trkpt lat="45.78546" lon="5.48129">
        <ele>390.725</ele>
        <time>2015-06-21T10:46:29Z</time>
      </trkpt>
      <trkpt lat="45.78537" lon="5.48132">
        <ele>388.91</ele>
        <time>2015-06-21T10:46:31Z</time>
      </trkpt>
      <trkpt lat="45.7853" lon="5.48137">
        <ele>385.543</ele>
        <time>2015-06-21T10:46:33Z</time>
      </trkpt>
      <trkpt lat="45.78528" lon="5.4814">
        <ele>385.543</ele>
        <time>2015-06-21T10:46:34Z</time>
      </trkpt>
      <trkpt lat="45.78525" lon="5.48129">
        <ele>383.652</ele>
        <time>2015-06-21T10:46:39Z</time>
      </trkpt>
      <trkpt lat="45.78529" lon="5.4812">
        <ele>382.172</ele>
        <time>2015-06-21T10:46:41Z</time>
      </trkpt>
      <trkpt lat="45.78532" lon="5.48111">
        <ele>380.708</ele>
        <time>2015-06-21T10:46:43Z</time>
      </trkpt>
      <trkpt lat="45.78543" lon="5.48092">
        <ele>377.918</ele>
        <time>2015-06-21T10:46:48Z</time>
      </trkpt>
      <trkpt lat="45.78548" lon="5.48088">
        <ele>376.597</ele>
        <time>2015-06-21T10:46:50Z</time>
      </trkpt>
      <trkpt lat="45.7855" lon="5.48085">
        <ele>375.92</ele>
        <time>2015-06-21T10:46:51Z</time>
      </trkpt>
      <trkpt lat="45.7854" lon="5.48079">
        <ele>372.427</ele>
        <time>2015-06-21T10:46:58Z</time>
      </trkpt>
      <trkpt lat="45.78525" lon="5.48087">
        <ele>370.477</ele>
        <time>2015-06-21T10:47:02Z</time>
      </trkpt>
      <trkpt lat="45.78492" lon="5.48118">
        <ele>367.245</ele>
        <time>2015-06-21T10:47:14Z</time>
      </trkpt>
      <trkpt lat="45.7848" lon="5.48129">
        <ele>364.915</ele>
        <time>2015-06-21T10:47:18Z</time>
      </trkpt>
      <trkpt lat="45.78463" lon="5.48149">
        <ele>361.562</ele>
        <time>2015-06-21T10:47:28Z</time>
      </trkpt>
      <trkpt lat="45.78458" lon="5.4816">
        <ele>359.813</ele>
        <time>2015-06-21T10:47:32Z</time>
      </trkpt>
      <trkpt lat="45.78452" lon="5.48207">
        <ele>357.625</ele>
        <time>2015-06-21T10:47:43Z</time>
      </trkpt>
      <trkpt lat="45.78445" lon="5.48259">
        <ele>359.535</ele>
        <time>2015-06-21T10:47:59Z</time>
      </trkpt>
      <trkpt lat="45.78444" lon="5.48299">
        <ele>361.594</ele>
        <time>2015-06-21T10:48:13Z</time>
      </trkpt>
      <trkpt lat="45.78446" lon="5.48308">
        <ele>362.04</ele>
        <time>2015-06-21T10:48:17Z</time>
      </trkpt>
      <trkpt lat="45.78448" lon="5.4833">
        <ele>362.37</ele>
        <time>2015-06-21T10:48:26Z</time>
      </trkpt>
      <trkpt lat="45.78448" lon="5.48337">
        <ele>362.318</ele>
        <time>2015-06-21T10:48:33Z</time>
      </trkpt>
      <trkpt lat="45.78455" lon="5.48369">
        <ele>361.226</ele>
        <time>2015-06-21T10:48:43Z</time>
      </trkpt>
      <trkpt lat="45.78461" lon="5.48387">
        <ele>359.316</ele>
        <time>2015-06-21T10:48:46Z</time>
      </trkpt>
      <trkpt lat="45.78479" lon="5.48439">
        <ele>356.594</ele>
        <time>2015-06-21T10:48:53Z</time>
      </trkpt>
      <trkpt lat="45.78504" lon="5.48508">
        <ele>356.063</ele>
        <time>2015-06-21T10:49:05Z</time>
      </trkpt>
      <trkpt lat="45.78496" lon="5.4851">
        <ele>354.042</ele>
        <time>2015-06-21T10:49:10Z</time>
      </trkpt>
      <trkpt lat="45.78491" lon="5.48509">
        <ele>353.423</ele>
        <time>2015-06-21T10:49:25Z</time>
      </trkpt>
      <trkpt lat="45.78479" lon="5.48504">
        <ele>351.148</ele>
        <time>2015-06-21T10:53:56Z</time>
      </trkpt>
      <trkpt lat="45.78468" lon="5.485">
        <ele>349.087</ele>
        <time>2015-06-21T10:53:58Z</time>
      </trkpt>
      <trkpt lat="45.78454" lon="5.48495">
        <ele>346.123</ele>
        <time>2015-06-21T10:54:00Z</time>
      </trkpt>
      <trkpt lat="45.78439" lon="5.48487">
        <ele>343.235</ele>
        <time>2015-06-21T10:54:02Z</time>
      </trkpt>
      <trkpt lat="45.78418" lon="5.48468">
        <ele>341.501</ele>
        <time>2015-06-21T10:54:05Z</time>
      </trkpt>
      <trkpt lat="45.78398" lon="5.48445">
        <ele>338.69</ele>
        <time>2015-06-21T10:54:08Z</time>
      </trkpt>
      <trkpt lat="45.78391" lon="5.48438">
        <ele>337.231</ele>
        <time>2015-06-21T10:54:09Z</time>
      </trkpt>
      <trkpt lat="45.78369" lon="5.48417">
        <ele>334.409</ele>
        <time>2015-06-21T10:54:12Z</time>
      </trkpt>
      <trkpt lat="45.78357" lon="5.4839">
        <ele>331.738</ele>
        <time>2015-06-21T10:54:15Z</time>
      </trkpt>
      <trkpt lat="45.78353" lon="5.48367">
        <ele>329.764</ele>
        <time>2015-06-21T10:54:17Z</time>
      </trkpt>
      <trkpt lat="45.78347" lon="5.48341">
        <ele>328.292</ele>
        <time>2015-06-21T10:54:19Z</time>
      </trkpt>
      <trkpt lat="45.7834" lon="5.48315">
        <ele>326.181</ele>
        <time>2015-06-21T10:54:21Z</time>
      </trkpt>
      <trkpt lat="45.78333" lon="5.48274">
        <ele>323.01</ele>
        <time>2015-06-21T10:54:24Z</time>
      </trkpt>
      <trkpt lat="45.78331" lon="5.48246">
        <ele>321.787</ele>
        <time>2015-06-21T10:54:26Z</time>
      </trkpt>
      <trkpt lat="45.7833" lon="5.4823">
        <ele>320.344</ele>
        <time>2015-06-21T10:54:27Z</time>
      </trkpt>
      <trkpt lat="45.78334" lon="5.48181">
        <ele>318.743</ele>
        <time>2015-06-21T10:54:31Z</time>
      </trkpt>
      <trkpt lat="45.78335" lon="5.48172">
        <ele>317.805</ele>
        <time>2015-06-21T10:54:32Z</time>
      </trkpt>
      <trkpt lat="45.7834" lon="5.48121">
        <ele>316.59</ele>
        <time>2015-06-21T10:54:43Z</time>
      </trkpt>
      <trkpt lat="45.78365" lon="5.48094">
        <ele>318.558</ele>
        <time>2015-06-21T10:55:14Z</time>
      </trkpt>
      <trkpt lat="45.78391" lon="5.48058">
        <ele>321.251</ele>
        <time>2015-06-21T10:55:31Z</time>
      </trkpt>
      <trkpt lat="45.78396" lon="5.48053">
        <ele>322.971</ele>
        <time>2015-06-21T10:55:35Z</time>
      </trkpt>
      <trkpt lat="45.78399" lon="5.4805">
        <ele>323.785</ele>
        <time>2015-06-21T10:55:37Z</time>
      </trkpt>
      <trkpt lat="45.78426" lon="5.4801">
        <ele>324.445</ele>
        <time>2015-06-21T10:55:55Z</time>
      </trkpt>
      <trkpt lat="45.78459" lon="5.4797">
        <ele>326.046</ele>
        <time>2015-06-21T10:56:15Z</time>
      </trkpt>
      <trkpt lat="45.78489" lon="5.47941">
        <ele>327.563</ele>
        <time>2015-06-21T10:56:32Z</time>
      </trkpt>
      <trkpt lat="45.78533" lon="5.47893">
        <ele>327.595</ele>
        <time>2015-06-21T10:56:52Z</time>
      </trkpt>
      <trkpt lat="45.78569" lon="5.47851">
        <ele>329.991</ele>
        <time>2015-06-21T10:57:10Z</time>
      </trkpt>
      <trkpt lat="45.78601" lon="5.47811">
        <ele>330.818</ele>
        <time>2015-06-21T10:57:27Z</time>
      </trkpt>
      <trkpt lat="45.78634" lon="5.4776">
        <ele>326.678</ele>
        <time>2015-06-21T10:57:40Z</time>
      </trkpt>
      <trkpt lat="45.78638" lon="5.47756">
        <ele>326.678</ele>
        <time>2015-06-21T10:57:41Z</time>
      </trkpt>
      <trkpt lat="45.78682" lon="5.47697">
        <ele>327.531</ele>
        <time>2015-06-21T10:57:56Z</time>
      </trkpt>
      <trkpt lat="45.78712" lon="5.47654">
        <ele>325.584</ele>
        <time>2015-06-21T10:58:08Z</time>
      </trkpt>
      <trkpt lat="45.78719" lon="5.47643">
        <ele>324.818</ele>
        <time>2015-06-21T10:58:10Z</time>
      </trkpt>
      <trkpt lat="45.78735" lon="5.47627">
        <ele>324.435</ele>
        <time>2015-06-21T10:58:14Z</time>
      </trkpt>
      <trkpt lat="45.78727" lon="5.47613">
        <ele>323.732</ele>
        <time>2015-06-21T10:58:20Z</time>
      </trkpt>
      <trkpt lat="45.78708" lon="5.47622">
        <ele>320.162</ele>
        <time>2015-06-21T10:58:25Z</time>
      </trkpt>
      <trkpt lat="45.78684" lon="5.47634">
        <ele>317.192</ele>
        <time>2015-06-21T10:58:31Z</time>
      </trkpt>
      <trkpt lat="45.7865" lon="5.4765">
        <ele>314.003</ele>
        <time>2015-06-21T10:58:40Z</time>
      </trkpt>
      <trkpt lat="45.78631" lon="5.47675">
        <ele>310.594</ele>
        <time>2015-06-21T10:58:49Z</time>
      </trkpt>
      <trkpt lat="45.78617" lon="5.47687">
        <ele>308.393</ele>
        <time>2015-06-21T10:58:55Z</time>
      </trkpt>
      <trkpt lat="45.78612" lon="5.47691">
        <ele>306.956</ele>
        <time>2015-06-21T10:58:57Z</time>
      </trkpt>
      <trkpt lat="45.78601" lon="5.47697">
        <ele>302.818</ele>
        <time>2015-06-21T10:59:01Z</time>
      </trkpt>
      <trkpt lat="45.78598" lon="5.47699">
        <ele>302.818</ele>
        <time>2015-06-21T10:59:02Z</time>
      </trkpt>
      <trkpt lat="45.78582" lon="5.47707">
        <ele>300.152</ele>
        <time>2015-06-21T10:59:06Z</time>
      </trkpt>
      <trkpt lat="45.78578" lon="5.47709">
        <ele>298.077</ele>
        <time>2015-06-21T10:59:07Z</time>
      </trkpt>
      <trkpt lat="45.7857" lon="5.4771">
        <ele>296.643</ele>
        <time>2015-06-21T10:59:09Z</time>
      </trkpt>
      <trkpt lat="45.7856" lon="5.47713">
        <ele>295.07</ele>
        <time>2015-06-21T10:59:11Z</time>
      </trkpt>
      <trkpt lat="45.78553" lon="5.47713">
        <ele>293.223</ele>
        <time>2015-06-21T10:59:13Z</time>
      </trkpt>
      <trkpt lat="45.78543" lon="5.47706">
        <ele>291.321</ele>
        <time>2015-06-21T10:59:16Z</time>
      </trkpt>
      <trkpt lat="45.78533" lon="5.47692">
        <ele>288.417</ele>
        <time>2015-06-21T10:59:20Z</time>
      </trkpt>
      <trkpt lat="45.78525" lon="5.4768">
        <ele>285.661</ele>
        <time>2015-06-21T10:59:23Z</time>
      </trkpt>
      <trkpt lat="45.78519" lon="5.47668">
        <ele>283.304</ele>
        <time>2015-06-21T10:59:26Z</time>
      </trkpt>
      <trkpt lat="45.78506" lon="5.47638">
        <ele>281.034</ele>
        <time>2015-06-21T10:59:32Z</time>
      </trkpt>
      <trkpt lat="45.785" lon="5.47628">
        <ele>279.93</ele>
        <time>2015-06-21T10:59:35Z</time>
      </trkpt>
      <trkpt lat="45.78491" lon="5.47611">
        <ele>278.498</ele>
        <time>2015-06-21T10:59:39Z</time>
      </trkpt>
      <trkpt lat="45.78446" lon="5.47544">
        <ele>277.203</ele>
        <time>2015-06-21T10:59:53Z</time>
      </trkpt>
      <trkpt lat="45.78444" lon="5.4754">
        <ele>276.64</ele>
        <time>2015-06-21T10:59:55Z</time>
      </trkpt>
      <trkpt lat="45.78444" lon="5.47532">
        <ele>276.524</ele>
        <time>2015-06-21T10:59:59Z</time>
      </trkpt>
      <trkpt lat="45.78452" lon="5.47521">
        <ele>276.297</ele>
        <time>2015-06-21T11:00:15Z</time>
      </trkpt>
      <trkpt lat="45.78473" lon="5.47494">
        <ele>276.273</ele>
        <time>2015-06-21T11:01:09Z</time>
      </trkpt>
      <trkpt lat="45.78534" lon="5.47459">
        <ele>273.649</ele>
        <time>2015-06-21T11:01:22Z</time>
      </trkpt>
      <trkpt lat="45.78551" lon="5.4745">
        <ele>273.314</ele>
        <time>2015-06-21T11:01:25Z</time>
      </trkpt>
      <trkpt lat="45.78597" lon="5.47381">
        <ele>270.486</ele>
        <time>2015-06-21T11:01:35Z</time>
      </trkpt>
      <trkpt lat="45.7861" lon="5.47331">
        <ele>269.688</ele>
        <time>2015-06-21T11:01:40Z</time>
      </trkpt>
      <trkpt lat="45.78678" lon="5.47198">
        <ele>270.024</ele>
        <time>2015-06-21T11:01:56Z</time>
      </trkpt>
      <trkpt lat="45.78718" lon="5.47137">
        <ele>270.618</ele>
        <time>2015-06-21T11:02:05Z</time>
      </trkpt>
      <trkpt lat="45.78776" lon="5.47061">
        <ele>267.228</ele>
        <time>2015-06-21T11:02:15Z</time>
      </trkpt>
      <trkpt lat="45.78834" lon="5.46983">
        <ele>262.015</ele>
        <time>2015-06-21T11:02:24Z</time>
      </trkpt>
      <trkpt lat="45.78842" lon="5.46974">
        <ele>262.015</ele>
        <time>2015-06-21T11:02:25Z</time>
      </trkpt>
      <trkpt lat="45.78858" lon="5.46958">
        <ele>260.509</ele>
        <time>2015-06-21T11:02:27Z</time>
      </trkpt>
      <trkpt lat="45.78885" lon="5.46933">
        <ele>258.728</ele>
        <time>2015-06-21T11:02:30Z</time>
      </trkpt>
      <trkpt lat="45.78904" lon="5.46918">
        <ele>257.452</ele>
        <time>2015-06-21T11:02:32Z</time>
      </trkpt>
      <trkpt lat="45.78924" lon="5.46904">
        <ele>254.379</ele>
        <time>2015-06-21T11:02:34Z</time>
      </trkpt>
      <trkpt lat="45.78934" lon="5.46898">
        <ele>254.379</ele>
        <time>2015-06-21T11:02:35Z</time>
      </trkpt>
      <trkpt lat="45.79017" lon="5.4684">
        <ele>252.968</ele>
        <time>2015-06-21T11:02:44Z</time>
      </trkpt>
      <trkpt lat="45.79062" lon="5.46796">
        <ele>254.344</ele>
        <time>2015-06-21T11:02:50Z</time>
      </trkpt>
      <trkpt lat="45.79123" lon="5.46668">
        <ele>253.338</ele>
        <time>2015-06-21T11:03:02Z</time>
      </trkpt>
      <trkpt lat="45.79157" lon="5.46616">
        <ele>250.669</ele>
        <time>2015-06-21T11:03:07Z</time>
      </trkpt>
      <trkpt lat="45.79174" lon="5.46596">
        <ele>248.254</ele>
        <time>2015-06-21T11:03:09Z</time>
      </trkpt>
      <trkpt lat="45.792" lon="5.46568">
        <ele>245.564</ele>
        <time>2015-06-21T11:03:12Z</time>
      </trkpt>
      <trkpt lat="45.79218" lon="5.46549">
        <ele>244.142</ele>
        <time>2015-06-21T11:03:14Z</time>
      </trkpt>
      <trkpt lat="45.79318" lon="5.46442">
        <ele>244.573</ele>
        <time>2015-06-21T11:03:27Z</time>
      </trkpt>
      <trkpt lat="45.79375" lon="5.46379">
        <ele>243.078</ele>
        <time>2015-06-21T11:03:37Z</time>
      </trkpt>
      <trkpt lat="45.79413" lon="5.46325">
        <ele>242.274</ele>
        <time>2015-06-21T11:03:46Z</time>
      </trkpt>
      <trkpt lat="45.79426" lon="5.46305">
        <ele>244.071</ele>
        <time>2015-06-21T11:03:49Z</time>
      </trkpt>
      <trkpt lat="45.79485" lon="5.46221">
        <ele>243.796</ele>
        <time>2015-06-21T11:04:04Z</time>
      </trkpt>
      <trkpt lat="45.79488" lon="5.46218">
        <ele>244.235</ele>
        <time>2015-06-21T11:04:06Z</time>
      </trkpt>
      <trkpt lat="45.7949" lon="5.46218">
        <ele>244.586</ele>
        <time>2015-06-21T11:04:24Z</time>
      </trkpt>
      <trkpt lat="45.79497" lon="5.46199">
        <ele>244.486</ele>
        <time>2015-06-21T11:05:12Z</time>
      </trkpt>
      <trkpt lat="45.79495" lon="5.46174">
        <ele>244.409</ele>
        <time>2015-06-21T11:05:23Z</time>
      </trkpt>
      <trkpt lat="45.79468" lon="5.46178">
        <ele>244.919</ele>
        <time>2015-06-21T11:05:35Z</time>
      </trkpt>
      <trkpt lat="45.79466" lon="5.46179">
        <ele>244.959</ele>
        <time>2015-06-21T11:05:36Z</time>
      </trkpt>
      <trkpt lat="45.79451" lon="5.46167">
        <ele>244.919</ele>
        <time>2015-06-21T11:05:42Z</time>
      </trkpt>
      <trkpt lat="45.79425" lon="5.46106">
        <ele>244.956</ele>
        <time>2015-06-21T11:05:56Z</time>
      </trkpt>
      <trkpt lat="45.79398" lon="5.46047">
        <ele>244.742</ele>
        <time>2015-06-21T11:06:12Z</time>
      </trkpt>
      <trkpt lat="45.79395" lon="5.46041">
        <ele>244.312</ele>
        <time>2015-06-21T11:06:13Z</time>
      </trkpt>
      <trkpt lat="45.79351" lon="5.45971">
        <ele>242.121</ele>
        <time>2015-06-21T11:06:24Z</time>
      </trkpt>
      <trkpt lat="45.79292" lon="5.45885">
        <ele>241.614</ele>
        <time>2015-06-21T11:06:36Z</time>
      </trkpt>
      <trkpt lat="45.79273" lon="5.4585">
        <ele>241.027</ele>
        <time>2015-06-21T11:06:41Z</time>
      </trkpt>
      <trkpt lat="45.79259" lon="5.45797">
        <ele>240.047</ele>
        <time>2015-06-21T11:06:47Z</time>
      </trkpt>
      <trkpt lat="45.79237" lon="5.45737">
        <ele>238.057</ele>
        <time>2015-06-21T11:06:54Z</time>
      </trkpt>
      <trkpt lat="45.79182" lon="5.45605">
        <ele>237.65</ele>
        <time>2015-06-21T11:07:11Z</time>
      </trkpt>
      <trkpt lat="45.79172" lon="5.45592">
        <ele>236.895</ele>
        <time>2015-06-21T11:07:13Z</time>
      </trkpt>
      <trkpt lat="45.79163" lon="5.4558">
        <ele>237.489</ele>
        <time>2015-06-21T11:07:15Z</time>
      </trkpt>
      <trkpt lat="45.79147" lon="5.4555">
        <ele>235.581</ele>
        <time>2015-06-21T11:07:19Z</time>
      </trkpt>
      <trkpt lat="45.79093" lon="5.454">
        <ele>233.666</ele>
        <time>2015-06-21T11:07:37Z</time>
      </trkpt>
      <trkpt lat="45.79015" lon="5.45234">
        <ele>231.993</ele>
        <time>2015-06-21T11:07:57Z</time>
      </trkpt>
      <trkpt lat="45.79004" lon="5.45211">
        <ele>232.487</ele>
        <time>2015-06-21T11:08:01Z</time>
      </trkpt>
      <trkpt lat="45.79022" lon="5.45188">
        <ele>231.924</ele>
        <time>2015-06-21T11:08:09Z</time>
      </trkpt>
      <trkpt lat="45.79117" lon="5.45132">
        <ele>232.226</ele>
        <time>2015-06-21T11:08:30Z</time>
      </trkpt>
      <trkpt lat="45.79178" lon="5.45109">
        <ele>232.64</ele>
        <time>2015-06-21T11:08:46Z</time>
      </trkpt>
      <trkpt lat="45.79192" lon="5.45101">
        <ele>231.042</ele>
        <time>2015-06-21T11:08:50Z</time>
      </trkpt>
      <trkpt lat="45.79213" lon="5.4508">
        <ele>230.001</ele>
        <time>2015-06-21T11:09:00Z</time>
      </trkpt>
      <trkpt lat="45.79213" lon="5.45076">
        <ele>229.784</ele>
        <time>2015-06-21T11:09:02Z</time>
      </trkpt>
      <trkpt lat="45.79207" lon="5.45068">
        <ele>230.075</ele>
        <time>2015-06-21T11:09:09Z</time>
      </trkpt>
      <trkpt lat="45.79204" lon="5.45067">
        <ele>230.003</ele>
        <time>2015-06-21T11:09:12Z</time>
      </trkpt>
      <trkpt lat="45.79201" lon="5.45063">
        <ele>229.419</ele>
        <time>2015-06-21T11:09:14Z</time>
      </trkpt>
      <trkpt lat="45.79194" lon="5.45057">
        <ele>228.894</ele>
        <time>2015-06-21T11:09:20Z</time>
      </trkpt>
      <trkpt lat="45.7919" lon="5.45046">
        <ele>228.635</ele>
        <time>2015-06-21T11:09:25Z</time>
      </trkpt>
      <trkpt lat="45.79186" lon="5.45039">
        <ele>228.69</ele>
        <time>2015-06-21T11:09:28Z</time>
      </trkpt>
      <trkpt lat="45.79187" lon="5.45035">
        <ele>228.817</ele>
        <time>2015-06-21T11:09:30Z</time>
      </trkpt>
      <trkpt lat="45.79184" lon="5.45019">
        <ele>228.933</ele>
        <time>2015-06-21T11:09:36Z</time>
      </trkpt>
      <trkpt lat="45.79183" lon="5.45009">
        <ele>228.727</ele>
        <time>2015-06-21T11:09:41Z</time>
      </trkpt>
      <trkpt lat="45.79176" lon="5.44993">
        <ele>228.495</ele>
        <time>2015-06-21T11:09:52Z</time>
      </trkpt>
      <trkpt lat="45.79174" lon="5.44983">
        <ele>228.193</ele>
        <time>2015-06-21T11:09:55Z</time>
      </trkpt>
      <trkpt lat="45.79171" lon="5.4496">
        <ele>228.262</ele>
        <time>2015-06-21T11:10:06Z</time>
      </trkpt>
      <trkpt lat="45.7917" lon="5.44913">
        <ele>227.607</ele>
        <time>2015-06-21T11:10:18Z</time>
      </trkpt>
      <trkpt lat="45.79169" lon="5.44908">
        <ele>227.596</ele>
        <time>2015-06-21T11:10:20Z</time>
      </trkpt>
      <trkpt lat="45.79169" lon="5.44902">
        <ele>227.744</ele>
        <time>2015-06-21T11:10:22Z</time>
      </trkpt>
      <trkpt lat="45.7917" lon="5.44891">
        <ele>227.607</ele>
        <time>2015-06-21T11:10:26Z</time>
      </trkpt>
      <trkpt lat="45.79169" lon="5.44875">
        <ele>226.928</ele>
        <time>2015-06-21T11:10:31Z</time>
      </trkpt>
      <trkpt lat="45.7916" lon="5.44838">
        <ele>227.303</ele>
        <time>2015-06-21T11:10:43Z</time>
      </trkpt>
      <trkpt lat="45.79152" lon="5.44823">
        <ele>227.102</ele>
        <time>2015-06-21T11:10:48Z</time>
      </trkpt>
      <trkpt lat="45.79138" lon="5.44812">
        <ele>226.547</ele>
        <time>2015-06-21T11:10:53Z</time>
      </trkpt>
      <trkpt lat="45.79117" lon="5.4477">
        <ele>226.486</ele>
        <time>2015-06-21T11:11:05Z</time>
      </trkpt>
      <trkpt lat="45.79101" lon="5.44699">
        <ele>225.459</ele>
        <time>2015-06-21T11:11:18Z</time>
      </trkpt>
      <trkpt lat="45.7909" lon="5.4463">
        <ele>225.366</ele>
        <time>2015-06-21T11:11:31Z</time>
      </trkpt>
      <trkpt lat="45.79084" lon="5.44566">
        <ele>225.316</ele>
        <time>2015-06-21T11:11:41Z</time>
      </trkpt>
      <trkpt lat="45.79083" lon="5.44533">
        <ele>224.832</ele>
        <time>2015-06-21T11:11:46Z</time>
      </trkpt>
      <trkpt lat="45.79089" lon="5.44476">
        <ele>225.348</ele>
        <time>2015-06-21T11:11:59Z</time>
      </trkpt>
      <trkpt lat="45.7907" lon="5.44472">
        <ele>224.425</ele>
        <time>2015-06-21T11:12:04Z</time>
      </trkpt>
      <trkpt lat="45.79046" lon="5.44488">
        <ele>224.753</ele>
        <time>2015-06-21T11:12:10Z</time>
      </trkpt>
      <trkpt lat="45.78994" lon="5.44524">
        <ele>224.758</ele>
        <time>2015-06-21T11:12:22Z</time>
      </trkpt>
      <trkpt lat="45.78948" lon="5.44552">
        <ele>224.288</ele>
        <time>2015-06-21T11:12:32Z</time>
      </trkpt>
      <trkpt lat="45.78855" lon="5.446">
        <ele>224.349</ele>
        <time>2015-06-21T11:12:50Z</time>
      </trkpt>
      <trkpt lat="45.78756" lon="5.44674">
        <ele>225.226</ele>
        <time>2015-06-21T11:13:12Z</time>
      </trkpt>
      <trkpt lat="45.78679" lon="5.44761">
        <ele>225.564</ele>
        <time>2015-06-21T11:13:30Z</time>
      </trkpt>
      <trkpt lat="45.78621" lon="5.44849">
        <ele>225.712</ele>
        <time>2015-06-21T11:13:45Z</time>
      </trkpt>
      <trkpt lat="45.78546" lon="5.44961">
        <ele>225.625</ele>
        <time>2015-06-21T11:14:04Z</time>
      </trkpt>
      <trkpt lat="45.78492" lon="5.45058">
        <ele>225.387</ele>
        <time>2015-06-21T11:14:19Z</time>
      </trkpt>
      <trkpt lat="45.78482" lon="5.45087">
        <ele>224.37</ele>
        <time>2015-06-21T11:14:23Z</time>
      </trkpt>
      <trkpt lat="45.78471" lon="5.45114">
        <ele>225.408</ele>
        <time>2015-06-21T11:14:27Z</time>
      </trkpt>
      <trkpt lat="45.78474" lon="5.4514">
        <ele>224.431</ele>
        <time>2015-06-21T11:14:31Z</time>
      </trkpt>
      <trkpt lat="45.78519" lon="5.45186">
        <ele>225.588</ele>
        <time>2015-06-21T11:14:41Z</time>
      </trkpt>
      <trkpt lat="45.78527" lon="5.45235">
        <ele>226.545</ele>
        <time>2015-06-21T11:14:49Z</time>
      </trkpt>
      <trkpt lat="45.78522" lon="5.45249">
        <ele>226.988</ele>
        <time>2015-06-21T11:14:51Z</time>
      </trkpt>
      <trkpt lat="45.78508" lon="5.45258">
        <ele>228.759</ele>
        <time>2015-06-21T11:14:55Z</time>
      </trkpt>
      <trkpt lat="45.78459" lon="5.45222">
        <ele>231.303</ele>
        <time>2015-06-21T11:15:10Z</time>
      </trkpt>
      <trkpt lat="45.78407" lon="5.45186">
        <ele>233.66</ele>
        <time>2015-06-21T11:15:28Z</time>
      </trkpt>
      <trkpt lat="45.7834" lon="5.45139">
        <ele>234.363</ele>
        <time>2015-06-21T11:15:47Z</time>
      </trkpt>
      <trkpt lat="45.78281" lon="5.45098">
        <ele>230.756</ele>
        <time>2015-06-21T11:15:57Z</time>
      </trkpt>
      <trkpt lat="45.78185" lon="5.45025">
        <ele>231.285</ele>
        <time>2015-06-21T11:16:13Z</time>
      </trkpt>
      <trkpt lat="45.78168" lon="5.45008">
        <ele>233.1</ele>
        <time>2015-06-21T11:16:17Z</time>
      </trkpt>
      <trkpt lat="45.78147" lon="5.4498">
        <ele>235.557</ele>
        <time>2015-06-21T11:16:24Z</time>
      </trkpt>
      <trkpt lat="45.78101" lon="5.4491">
        <ele>238.586</ele>
        <time>2015-06-21T11:16:45Z</time>
      </trkpt>
      <trkpt lat="45.78093" lon="5.44896">
        <ele>238.993</ele>
        <time>2015-06-21T11:16:49Z</time>
      </trkpt>
      <trkpt lat="45.78097" lon="5.44881">
        <ele>239.41</ele>
        <time>2015-06-21T11:16:53Z</time>
      </trkpt>
      <trkpt lat="45.78147" lon="5.44841">
        <ele>238.771</ele>
        <time>2015-06-21T11:17:07Z</time>
      </trkpt>
      <trkpt lat="45.78166" lon="5.44821">
        <ele>238.165</ele>
        <time>2015-06-21T11:17:11Z</time>
      </trkpt>
      <trkpt lat="45.78199" lon="5.44775">
        <ele>237.05</ele>
        <time>2015-06-21T11:17:19Z</time>
      </trkpt>
      <trkpt lat="45.78215" lon="5.44763">
        <ele>235.692</ele>
        <time>2015-06-21T11:17:22Z</time>
      </trkpt>
      <trkpt lat="45.7822" lon="5.4476">
        <ele>235.441</ele>
        <time>2015-06-21T11:17:23Z</time>
      </trkpt>
      <trkpt lat="45.78251" lon="5.4476">
        <ele>235.481</ele>
        <time>2015-06-21T11:17:28Z</time>
      </trkpt>
      <trkpt lat="45.78342" lon="5.4479">
        <ele>238.073</ele>
        <time>2015-06-21T11:17:46Z</time>
      </trkpt>
      <trkpt lat="45.78355" lon="5.44791">
        <ele>237.574</ele>
        <time>2015-06-21T11:17:49Z</time>
      </trkpt>
      <trkpt lat="45.78366" lon="5.4479">
        <ele>237.418</ele>
        <time>2015-06-21T11:17:51Z</time>
      </trkpt>
      <trkpt lat="45.78463" lon="5.44735">
        <ele>237.555</ele>
        <time>2015-06-21T11:18:12Z</time>
      </trkpt>
      <trkpt lat="45.78468" lon="5.44731">
        <ele>237.455</ele>
        <time>2015-06-21T11:18:13Z</time>
      </trkpt>
      <trkpt lat="45.78487" lon="5.44719">
        <ele>237.22</ele>
        <time>2015-06-21T11:18:17Z</time>
      </trkpt>
      <trkpt lat="45.78511" lon="5.44692">
        <ele>234.974</ele>
        <time>2015-06-21T11:18:22Z</time>
      </trkpt>
      <trkpt lat="45.78534" lon="5.4466">
        <ele>232.062</ele>
        <time>2015-06-21T11:18:26Z</time>
      </trkpt>
      <trkpt lat="45.78554" lon="5.44633">
        <ele>229.739</ele>
        <time>2015-06-21T11:18:29Z</time>
      </trkpt>
      <trkpt lat="45.78581" lon="5.44593">
        <ele>226.745</ele>
        <time>2015-06-21T11:18:33Z</time>
      </trkpt>
      <trkpt lat="45.78604" lon="5.44575">
        <ele>223.231</ele>
        <time>2015-06-21T11:18:36Z</time>
      </trkpt>
      <trkpt lat="45.78621" lon="5.44565">
        <ele>220.367</ele>
        <time>2015-06-21T11:18:38Z</time>
      </trkpt>
      <trkpt lat="45.78646" lon="5.44537">
        <ele>222.47</ele>
        <time>2015-06-21T11:18:42Z</time>
      </trkpt>
      <trkpt lat="45.78651" lon="5.4453">
        <ele>222.47</ele>
        <time>2015-06-21T11:18:43Z</time>
      </trkpt>
      <trkpt lat="45.78663" lon="5.44505">
        <ele>224.225</ele>
        <time>2015-06-21T11:18:47Z</time>
      </trkpt>
      <trkpt lat="45.78669" lon="5.44492">
        <ele>226.267</ele>
        <time>2015-06-21T11:18:50Z</time>
      </trkpt>
      <trkpt lat="45.78677" lon="5.44475">
        <ele>227.969</ele>
        <time>2015-06-21T11:18:55Z</time>
      </trkpt>
      <trkpt lat="45.78682" lon="5.44461">
        <ele>229.628</ele>
        <time>2015-06-21T11:19:00Z</time>
      </trkpt>
      <trkpt lat="45.78687" lon="5.44424">
        <ele>232.68</ele>
        <time>2015-06-21T11:19:11Z</time>
      </trkpt>
      <trkpt lat="45.78685" lon="5.44391">
        <ele>235.122</ele>
        <time>2015-06-21T11:19:22Z</time>
      </trkpt>
      <trkpt lat="45.78684" lon="5.44384">
        <ele>235.629</ele>
        <time>2015-06-21T11:19:24Z</time>
      </trkpt>
      <trkpt lat="45.78685" lon="5.44375">
        <ele>236.839</ele>
        <time>2015-06-21T11:19:27Z</time>
      </trkpt>
      <trkpt lat="45.78716" lon="5.44351">
        <ele>238.136</ele>
        <time>2015-06-21T11:19:42Z</time>
      </trkpt>
    </trkseg>
  </trk>
</gpx>